<?xml version="1.0" encoding="UTF-8" standalone="no" ?>
<gpx xmlns="http://www.topografix.com/GPX/1/1" xmlns:xsi="http://www.w3.org/2001/XMLSchema-instance" xsi:schemaLocation="http://www.topografix.com/GPX/1/1 http://www.topografix.com/GPX/1/1/gpx.xsd" version="1.1" creator="VisuGPX - https://www.visugpx.com">
  <metadata>
    <name>Col de Teia, refuge de Bassegoda, col de Riu, pic </name>
    <desc><![CDATA[TOPO sur notre site:
https://randonnees-pyrenees-orientales.e-monsite.com/pages/espagne/col-de-teia-refuge-de-bassegoda-col-de-riu-pic-de-bassegoda-col-de-bassgoda-sant-joan-de-mussols.html]]></desc>
  </metadata>
  <trk>
    <name><![CDATA[6230145-Col de Teia, refuge de Bassegoda, col de Riu, pic ]]></name>
    <extensions>
      <line xmlns="http://www.topografix.com/GPX/gpx_style/0/2">
        <color>0000FF</color>
        <width>4</width>
      </line>
    </extensions>
    <trkseg>
      <trkpt lat="42.31658" lon="2.6804">
        <ele>645</ele>
        <time>2022-08-15T18:49:09Z</time>
      </trkpt>
      <trkpt lat="42.31656" lon="2.68042">
        <ele>644</ele>
        <time>2022-08-15T18:49:12Z</time>
      </trkpt>
      <trkpt lat="42.31659" lon="2.6803">
        <ele>646</ele>
        <time>2022-08-15T18:49:25Z</time>
      </trkpt>
      <trkpt lat="42.31656" lon="2.6802">
        <ele>646</ele>
        <time>2022-08-15T18:49:35Z</time>
      </trkpt>
      <trkpt lat="42.31657" lon="2.68007">
        <ele>648</ele>
        <time>2022-08-15T18:49:48Z</time>
      </trkpt>
      <trkpt lat="42.31661" lon="2.67984">
        <ele>651</ele>
        <time>2022-08-15T18:50:12Z</time>
      </trkpt>
      <trkpt lat="42.31658" lon="2.67954">
        <ele>650</ele>
        <time>2022-08-15T18:50:42Z</time>
      </trkpt>
      <trkpt lat="42.31659" lon="2.67929">
        <ele>651</ele>
        <time>2022-08-15T18:51:06Z</time>
      </trkpt>
      <trkpt lat="42.31669" lon="2.6788">
        <ele>654</ele>
        <time>2022-08-15T18:51:56Z</time>
      </trkpt>
      <trkpt lat="42.31676" lon="2.67863">
        <ele>657</ele>
        <time>2022-08-15T18:52:16Z</time>
      </trkpt>
      <trkpt lat="42.3168" lon="2.67838">
        <ele>659</ele>
        <time>2022-08-15T18:52:41Z</time>
      </trkpt>
      <trkpt lat="42.31695" lon="2.67638">
        <ele>669</ele>
        <time>2022-08-15T18:55:59Z</time>
      </trkpt>
      <trkpt lat="42.31672" lon="2.676">
        <ele>658</ele>
        <time>2022-08-15T18:56:48Z</time>
      </trkpt>
      <trkpt lat="42.31662" lon="2.67564">
        <ele>660</ele>
        <time>2022-08-15T18:57:26Z</time>
      </trkpt>
      <trkpt lat="42.31656" lon="2.67556">
        <ele>660</ele>
        <time>2022-08-15T18:57:37Z</time>
      </trkpt>
      <trkpt lat="42.31648" lon="2.67527">
        <ele>666</ele>
        <time>2022-08-15T18:58:07Z</time>
      </trkpt>
      <trkpt lat="42.31648" lon="2.67488">
        <ele>678</ele>
        <time>2022-08-15T18:58:46Z</time>
      </trkpt>
      <trkpt lat="42.31641" lon="2.67461">
        <ele>683</ele>
        <time>2022-08-15T18:59:14Z</time>
      </trkpt>
      <trkpt lat="42.31624" lon="2.67442">
        <ele>682</ele>
        <time>2022-08-15T18:59:44Z</time>
      </trkpt>
      <trkpt lat="42.31582" lon="2.67423">
        <ele>673</ele>
        <time>2022-08-15T19:00:43Z</time>
      </trkpt>
      <trkpt lat="42.31536" lon="2.67423">
        <ele>675</ele>
        <time>2022-08-15T19:01:44Z</time>
      </trkpt>
      <trkpt lat="42.31522" lon="2.67411">
        <ele>681</ele>
        <time>2022-08-15T19:02:06Z</time>
      </trkpt>
      <trkpt lat="42.31508" lon="2.67417">
        <ele>678</ele>
        <time>2022-08-15T19:02:26Z</time>
      </trkpt>
      <trkpt lat="42.31492" lon="2.67436">
        <ele>671</ele>
        <time>2022-08-15T19:02:54Z</time>
      </trkpt>
      <trkpt lat="42.31479" lon="2.67456">
        <ele>664</ele>
        <time>2022-08-15T19:03:20Z</time>
      </trkpt>
      <trkpt lat="42.31471" lon="2.67462">
        <ele>662</ele>
        <time>2022-08-15T19:03:33Z</time>
      </trkpt>
      <trkpt lat="42.31431" lon="2.6746">
        <ele>668</ele>
        <time>2022-08-15T19:04:26Z</time>
      </trkpt>
      <trkpt lat="42.31419" lon="2.67454">
        <ele>672</ele>
        <time>2022-08-15T19:04:43Z</time>
      </trkpt>
      <trkpt lat="42.31402" lon="2.67437">
        <ele>676</ele>
        <time>2022-08-15T19:05:11Z</time>
      </trkpt>
      <trkpt lat="42.31359" lon="2.67424">
        <ele>671</ele>
        <time>2022-08-15T19:06:10Z</time>
      </trkpt>
      <trkpt lat="42.31339" lon="2.67412">
        <ele>669</ele>
        <time>2022-08-15T19:06:39Z</time>
      </trkpt>
      <trkpt lat="42.31328" lon="2.67401">
        <ele>667</ele>
        <time>2022-08-15T19:06:58Z</time>
      </trkpt>
      <trkpt lat="42.31303" lon="2.67359">
        <ele>665</ele>
        <time>2022-08-15T19:07:51Z</time>
      </trkpt>
      <trkpt lat="42.31298" lon="2.67335">
        <ele>666</ele>
        <time>2022-08-15T19:08:15Z</time>
      </trkpt>
      <trkpt lat="42.31299" lon="2.67315">
        <ele>667</ele>
        <time>2022-08-15T19:08:35Z</time>
      </trkpt>
      <trkpt lat="42.31286" lon="2.67278">
        <ele>663</ele>
        <time>2022-08-15T19:09:16Z</time>
      </trkpt>
      <trkpt lat="42.31274" lon="2.67216">
        <ele>656</ele>
        <time>2022-08-15T19:10:19Z</time>
      </trkpt>
      <trkpt lat="42.31283" lon="2.6719">
        <ele>657</ele>
        <time>2022-08-15T19:10:47Z</time>
      </trkpt>
      <trkpt lat="42.31288" lon="2.67167">
        <ele>656</ele>
        <time>2022-08-15T19:11:11Z</time>
      </trkpt>
      <trkpt lat="42.3129" lon="2.67139">
        <ele>654</ele>
        <time>2022-08-15T19:11:39Z</time>
      </trkpt>
      <trkpt lat="42.31302" lon="2.67113">
        <ele>655</ele>
        <time>2022-08-15T19:12:09Z</time>
      </trkpt>
      <trkpt lat="42.31302" lon="2.67093">
        <ele>653</ele>
        <time>2022-08-15T19:12:29Z</time>
      </trkpt>
      <trkpt lat="42.313" lon="2.67066">
        <ele>651</ele>
        <time>2022-08-15T19:12:55Z</time>
      </trkpt>
      <trkpt lat="42.31288" lon="2.67027">
        <ele>645</ele>
        <time>2022-08-15T19:13:37Z</time>
      </trkpt>
      <trkpt lat="42.31276" lon="2.6696">
        <ele>636</ele>
        <time>2022-08-15T19:14:45Z</time>
      </trkpt>
      <trkpt lat="42.31278" lon="2.66954">
        <ele>636</ele>
        <time>2022-08-15T19:14:52Z</time>
      </trkpt>
      <trkpt lat="42.31304" lon="2.66928">
        <ele>644</ele>
        <time>2022-08-15T19:15:35Z</time>
      </trkpt>
      <trkpt lat="42.31317" lon="2.6688">
        <ele>642</ele>
        <time>2022-08-15T19:16:25Z</time>
      </trkpt>
      <trkpt lat="42.31324" lon="2.66863">
        <ele>642</ele>
        <time>2022-08-15T19:16:44Z</time>
      </trkpt>
      <trkpt lat="42.31318" lon="2.66803">
        <ele>633</ele>
        <time>2022-08-15T19:17:44Z</time>
      </trkpt>
      <trkpt lat="42.31318" lon="2.66729">
        <ele>625</ele>
        <time>2022-08-15T19:18:57Z</time>
      </trkpt>
      <trkpt lat="42.31312" lon="2.66692">
        <ele>617</ele>
        <time>2022-08-15T19:19:35Z</time>
      </trkpt>
      <trkpt lat="42.31317" lon="2.66674">
        <ele>616</ele>
        <time>2022-08-15T19:19:53Z</time>
      </trkpt>
      <trkpt lat="42.31328" lon="2.66662">
        <ele>618</ele>
        <time>2022-08-15T19:20:12Z</time>
      </trkpt>
      <trkpt lat="42.31343" lon="2.66653">
        <ele>622</ele>
        <time>2022-08-15T19:20:34Z</time>
      </trkpt>
      <trkpt lat="42.31359" lon="2.66636">
        <ele>627</ele>
        <time>2022-08-15T19:21:01Z</time>
      </trkpt>
      <trkpt lat="42.3135" lon="2.66583">
        <ele>619</ele>
        <time>2022-08-15T19:21:55Z</time>
      </trkpt>
      <trkpt lat="42.31343" lon="2.66559">
        <ele>619</ele>
        <time>2022-08-15T19:22:21Z</time>
      </trkpt>
      <trkpt lat="42.31327" lon="2.66536">
        <ele>616</ele>
        <time>2022-08-15T19:22:52Z</time>
      </trkpt>
      <trkpt lat="42.31309" lon="2.6652">
        <ele>612</ele>
        <time>2022-08-15T19:23:20Z</time>
      </trkpt>
      <trkpt lat="42.31297" lon="2.66505">
        <ele>610</ele>
        <time>2022-08-15T19:23:42Z</time>
      </trkpt>
      <trkpt lat="42.3129" lon="2.66489">
        <ele>609</ele>
        <time>2022-08-15T19:24:01Z</time>
      </trkpt>
      <trkpt lat="42.31286" lon="2.6647">
        <ele>608</ele>
        <time>2022-08-15T19:24:20Z</time>
      </trkpt>
      <trkpt lat="42.31281" lon="2.66465">
        <ele>607</ele>
        <time>2022-08-15T19:24:28Z</time>
      </trkpt>
      <trkpt lat="42.31268" lon="2.66467">
        <ele>602</ele>
        <time>2022-08-15T19:24:46Z</time>
      </trkpt>
      <trkpt lat="42.3127" lon="2.66472">
        <ele>602</ele>
        <time>2022-08-15T19:24:51Z</time>
      </trkpt>
      <trkpt lat="42.31276" lon="2.6647">
        <ele>605</ele>
        <time>2022-08-15T19:25:00Z</time>
      </trkpt>
      <trkpt lat="42.31275" lon="2.6646">
        <ele>604</ele>
        <time>2022-08-15T19:25:10Z</time>
      </trkpt>
      <trkpt lat="42.31288" lon="2.66467">
        <ele>609</ele>
        <time>2022-08-15T19:25:28Z</time>
      </trkpt>
      <trkpt lat="42.31297" lon="2.66433">
        <ele>614</ele>
        <time>2022-08-15T19:26:04Z</time>
      </trkpt>
      <trkpt lat="42.31287" lon="2.66375">
        <ele>615</ele>
        <time>2022-08-15T19:27:03Z</time>
      </trkpt>
      <trkpt lat="42.31289" lon="2.66364">
        <ele>617</ele>
        <time>2022-08-15T19:27:14Z</time>
      </trkpt>
      <trkpt lat="42.313" lon="2.66341">
        <ele>623</ele>
        <time>2022-08-15T19:27:41Z</time>
      </trkpt>
      <trkpt lat="42.31298" lon="2.66324">
        <ele>626</ele>
        <time>2022-08-15T19:27:58Z</time>
      </trkpt>
      <trkpt lat="42.31285" lon="2.66307">
        <ele>627</ele>
        <time>2022-08-15T19:28:22Z</time>
      </trkpt>
      <trkpt lat="42.31253" lon="2.66298">
        <ele>623</ele>
        <time>2022-08-15T19:29:06Z</time>
      </trkpt>
      <trkpt lat="42.31248" lon="2.66292">
        <ele>625</ele>
        <time>2022-08-15T19:29:15Z</time>
      </trkpt>
      <trkpt lat="42.31233" lon="2.66285">
        <ele>626</ele>
        <time>2022-08-15T19:29:36Z</time>
      </trkpt>
      <trkpt lat="42.3123" lon="2.66275">
        <ele>630</ele>
        <time>2022-08-15T19:29:46Z</time>
      </trkpt>
      <trkpt lat="42.31221" lon="2.66268">
        <ele>632</ele>
        <time>2022-08-15T19:30:00Z</time>
      </trkpt>
      <trkpt lat="42.31208" lon="2.66235">
        <ele>645</ele>
        <time>2022-08-15T19:30:37Z</time>
      </trkpt>
      <trkpt lat="42.31189" lon="2.66223">
        <ele>649</ele>
        <time>2022-08-15T19:31:05Z</time>
      </trkpt>
      <trkpt lat="42.31178" lon="2.66219">
        <ele>650</ele>
        <time>2022-08-15T19:31:20Z</time>
      </trkpt>
      <trkpt lat="42.31154" lon="2.66218">
        <ele>649</ele>
        <time>2022-08-15T19:31:52Z</time>
      </trkpt>
      <trkpt lat="42.31134" lon="2.66203">
        <ele>655</ele>
        <time>2022-08-15T19:32:23Z</time>
      </trkpt>
      <trkpt lat="42.31095" lon="2.66185">
        <ele>663</ele>
        <time>2022-08-15T19:33:18Z</time>
      </trkpt>
      <trkpt lat="42.31078" lon="2.66171">
        <ele>669</ele>
        <time>2022-08-15T19:33:44Z</time>
      </trkpt>
      <trkpt lat="42.31072" lon="2.66163">
        <ele>672</ele>
        <time>2022-08-15T19:33:56Z</time>
      </trkpt>
      <trkpt lat="42.31061" lon="2.66158">
        <ele>674</ele>
        <time>2022-08-15T19:34:11Z</time>
      </trkpt>
      <trkpt lat="42.31041" lon="2.66156">
        <ele>673</ele>
        <time>2022-08-15T19:34:38Z</time>
      </trkpt>
      <trkpt lat="42.31028" lon="2.66152">
        <ele>674</ele>
        <time>2022-08-15T19:34:56Z</time>
      </trkpt>
      <trkpt lat="42.31005" lon="2.66155">
        <ele>672</ele>
        <time>2022-08-15T19:35:27Z</time>
      </trkpt>
      <trkpt lat="42.30992" lon="2.66154">
        <ele>669</ele>
        <time>2022-08-15T19:35:44Z</time>
      </trkpt>
      <trkpt lat="42.30988" lon="2.66147">
        <ele>670</ele>
        <time>2022-08-15T19:35:53Z</time>
      </trkpt>
      <trkpt lat="42.30984" lon="2.66124">
        <ele>675</ele>
        <time>2022-08-15T19:36:16Z</time>
      </trkpt>
      <trkpt lat="42.30984" lon="2.66112">
        <ele>678</ele>
        <time>2022-08-15T19:36:28Z</time>
      </trkpt>
      <trkpt lat="42.30993" lon="2.66078">
        <ele>690</ele>
        <time>2022-08-15T19:37:03Z</time>
      </trkpt>
      <trkpt lat="42.31013" lon="2.66045">
        <ele>697</ele>
        <time>2022-08-15T19:37:46Z</time>
      </trkpt>
      <trkpt lat="42.31024" lon="2.66036">
        <ele>702</ele>
        <time>2022-08-15T19:38:03Z</time>
      </trkpt>
      <trkpt lat="42.31038" lon="2.65957">
        <ele>713</ele>
        <time>2022-08-15T19:39:23Z</time>
      </trkpt>
      <trkpt lat="42.31048" lon="2.65941">
        <ele>718</ele>
        <time>2022-08-15T19:39:44Z</time>
      </trkpt>
      <trkpt lat="42.31048" lon="2.65915">
        <ele>719</ele>
        <time>2022-08-15T19:40:09Z</time>
      </trkpt>
      <trkpt lat="42.31054" lon="2.65894">
        <ele>723</ele>
        <time>2022-08-15T19:40:31Z</time>
      </trkpt>
      <trkpt lat="42.31068" lon="2.65875">
        <ele>731</ele>
        <time>2022-08-15T19:40:58Z</time>
      </trkpt>
      <trkpt lat="42.31071" lon="2.65865">
        <ele>733</ele>
        <time>2022-08-15T19:41:09Z</time>
      </trkpt>
      <trkpt lat="42.31067" lon="2.65839">
        <ele>732</ele>
        <time>2022-08-15T19:41:35Z</time>
      </trkpt>
      <trkpt lat="42.31064" lon="2.65834">
        <ele>731</ele>
        <time>2022-08-15T19:41:41Z</time>
      </trkpt>
      <trkpt lat="42.31059" lon="2.65811">
        <ele>733</ele>
        <time>2022-08-15T19:42:05Z</time>
      </trkpt>
      <trkpt lat="42.31056" lon="2.65715">
        <ele>745</ele>
        <time>2022-08-15T19:43:40Z</time>
      </trkpt>
      <trkpt lat="42.31034" lon="2.65597">
        <ele>748</ele>
        <time>2022-08-15T19:45:40Z</time>
      </trkpt>
      <trkpt lat="42.31035" lon="2.65569">
        <ele>749</ele>
        <time>2022-08-15T19:46:07Z</time>
      </trkpt>
      <trkpt lat="42.31048" lon="2.65503">
        <ele>756</ele>
        <time>2022-08-15T19:47:15Z</time>
      </trkpt>
      <trkpt lat="42.31065" lon="2.65434">
        <ele>755</ele>
        <time>2022-08-15T19:48:27Z</time>
      </trkpt>
      <trkpt lat="42.31079" lon="2.65413">
        <ele>759</ele>
        <time>2022-08-15T19:48:54Z</time>
      </trkpt>
      <trkpt lat="42.31078" lon="2.65403">
        <ele>757</ele>
        <time>2022-08-15T19:49:04Z</time>
      </trkpt>
      <trkpt lat="42.31088" lon="2.65392">
        <ele>759</ele>
        <time>2022-08-15T19:49:22Z</time>
      </trkpt>
      <trkpt lat="42.31093" lon="2.65381">
        <ele>759</ele>
        <time>2022-08-15T19:49:34Z</time>
      </trkpt>
      <trkpt lat="42.31121" lon="2.65339">
        <ele>760</ele>
        <time>2022-08-15T19:50:30Z</time>
      </trkpt>
      <trkpt lat="42.31134" lon="2.65326">
        <ele>762</ele>
        <time>2022-08-15T19:50:52Z</time>
      </trkpt>
      <trkpt lat="42.31155" lon="2.65323">
        <ele>768</ele>
        <time>2022-08-15T19:51:20Z</time>
      </trkpt>
      <trkpt lat="42.31165" lon="2.65309">
        <ele>770</ele>
        <time>2022-08-15T19:51:39Z</time>
      </trkpt>
      <trkpt lat="42.31175" lon="2.65281">
        <ele>771</ele>
        <time>2022-08-15T19:52:10Z</time>
      </trkpt>
      <trkpt lat="42.31176" lon="2.65274">
        <ele>771</ele>
        <time>2022-08-15T19:52:17Z</time>
      </trkpt>
      <trkpt lat="42.31168" lon="2.65244">
        <ele>768</ele>
        <time>2022-08-15T19:52:48Z</time>
      </trkpt>
      <trkpt lat="42.31145" lon="2.65199">
        <ele>764</ele>
        <time>2022-08-15T19:53:42Z</time>
      </trkpt>
      <trkpt lat="42.31145" lon="2.65184">
        <ele>765</ele>
        <time>2022-08-15T19:53:57Z</time>
      </trkpt>
      <trkpt lat="42.31155" lon="2.65166">
        <ele>767</ele>
        <time>2022-08-15T19:54:19Z</time>
      </trkpt>
      <trkpt lat="42.31165" lon="2.65158">
        <ele>768</ele>
        <time>2022-08-15T19:54:35Z</time>
      </trkpt>
      <trkpt lat="42.31176" lon="2.65157">
        <ele>772</ele>
        <time>2022-08-15T19:54:50Z</time>
      </trkpt>
      <trkpt lat="42.31181" lon="2.6517">
        <ele>775</ele>
        <time>2022-08-15T19:55:04Z</time>
      </trkpt>
      <trkpt lat="42.31189" lon="2.65182">
        <ele>777</ele>
        <time>2022-08-15T19:55:20Z</time>
      </trkpt>
      <trkpt lat="42.31196" lon="2.65187">
        <ele>779</ele>
        <time>2022-08-15T19:55:31Z</time>
      </trkpt>
      <trkpt lat="42.31206" lon="2.65189">
        <ele>783</ele>
        <time>2022-08-15T19:55:44Z</time>
      </trkpt>
      <trkpt lat="42.31217" lon="2.65182">
        <ele>786</ele>
        <time>2022-08-15T19:56:00Z</time>
      </trkpt>
      <trkpt lat="42.31237" lon="2.65153">
        <ele>792</ele>
        <time>2022-08-15T19:56:39Z</time>
      </trkpt>
      <trkpt lat="42.31249" lon="2.65128">
        <ele>793</ele>
        <time>2022-08-15T19:57:09Z</time>
      </trkpt>
      <trkpt lat="42.31259" lon="2.65123">
        <ele>798</ele>
        <time>2022-08-15T19:57:23Z</time>
      </trkpt>
      <trkpt lat="42.31265" lon="2.65113">
        <ele>800</ele>
        <time>2022-08-15T19:57:36Z</time>
      </trkpt>
      <trkpt lat="42.31273" lon="2.65106">
        <ele>804</ele>
        <time>2022-08-15T19:57:48Z</time>
      </trkpt>
      <trkpt lat="42.31289" lon="2.65078">
        <ele>809</ele>
        <time>2022-08-15T19:58:23Z</time>
      </trkpt>
      <trkpt lat="42.31305" lon="2.65028">
        <ele>815</ele>
        <time>2022-08-15T19:59:17Z</time>
      </trkpt>
      <trkpt lat="42.31313" lon="2.64976">
        <ele>821</ele>
        <time>2022-08-15T20:00:10Z</time>
      </trkpt>
      <trkpt lat="42.31307" lon="2.64958">
        <ele>820</ele>
        <time>2022-08-15T20:00:29Z</time>
      </trkpt>
      <trkpt lat="42.31275" lon="2.64902">
        <ele>814</ele>
        <time>2022-08-15T20:01:39Z</time>
      </trkpt>
      <trkpt lat="42.31264" lon="2.64887">
        <ele>813</ele>
        <time>2022-08-15T20:02:00Z</time>
      </trkpt>
      <trkpt lat="42.31238" lon="2.64841">
        <ele>813</ele>
        <time>2022-08-15T20:02:57Z</time>
      </trkpt>
      <trkpt lat="42.31237" lon="2.64837">
        <ele>814</ele>
        <time>2022-08-15T20:03:01Z</time>
      </trkpt>
      <trkpt lat="42.31239" lon="2.64838">
        <ele>814</ele>
        <time>2022-08-15T20:03:04Z</time>
      </trkpt>
      <trkpt lat="42.31236" lon="2.64839">
        <ele>813</ele>
        <time>2022-08-15T20:03:08Z</time>
      </trkpt>
      <trkpt lat="42.31238" lon="2.64838">
        <ele>814</ele>
        <time>2022-08-15T20:03:11Z</time>
      </trkpt>
      <trkpt lat="42.31237" lon="2.64842">
        <ele>812</ele>
        <time>2022-08-15T20:03:15Z</time>
      </trkpt>
      <trkpt lat="42.31238" lon="2.64839">
        <ele>814</ele>
        <time>2022-08-15T20:03:18Z</time>
      </trkpt>
      <trkpt lat="42.31234" lon="2.64838">
        <ele>812</ele>
        <time>2022-08-15T20:03:24Z</time>
      </trkpt>
      <trkpt lat="42.31235" lon="2.64835">
        <ele>813</ele>
        <time>2022-08-15T20:03:27Z</time>
      </trkpt>
      <trkpt lat="42.31228" lon="2.64813">
        <ele>814</ele>
        <time>2022-08-15T20:03:51Z</time>
      </trkpt>
      <trkpt lat="42.31224" lon="2.6481">
        <ele>813</ele>
        <time>2022-08-15T20:03:57Z</time>
      </trkpt>
      <trkpt lat="42.31204" lon="2.64704">
        <ele>819</ele>
        <time>2022-08-15T20:05:45Z</time>
      </trkpt>
      <trkpt lat="42.31168" lon="2.64612">
        <ele>813</ele>
        <time>2022-08-15T20:07:27Z</time>
      </trkpt>
      <trkpt lat="42.31167" lon="2.64602">
        <ele>814</ele>
        <time>2022-08-15T20:07:37Z</time>
      </trkpt>
      <trkpt lat="42.31172" lon="2.64589">
        <ele>818</ele>
        <time>2022-08-15T20:07:52Z</time>
      </trkpt>
      <trkpt lat="42.31168" lon="2.64585">
        <ele>817</ele>
        <time>2022-08-15T20:07:58Z</time>
      </trkpt>
      <trkpt lat="42.31165" lon="2.6457">
        <ele>815</ele>
        <time>2022-08-15T20:08:14Z</time>
      </trkpt>
      <trkpt lat="42.31168" lon="2.64551">
        <ele>817</ele>
        <time>2022-08-15T20:08:33Z</time>
      </trkpt>
      <trkpt lat="42.31165" lon="2.6454">
        <ele>815</ele>
        <time>2022-08-15T20:08:44Z</time>
      </trkpt>
      <trkpt lat="42.31167" lon="2.64531">
        <ele>816</ele>
        <time>2022-08-15T20:08:54Z</time>
      </trkpt>
      <trkpt lat="42.31158" lon="2.64481">
        <ele>811</ele>
        <time>2022-08-15T20:09:44Z</time>
      </trkpt>
      <trkpt lat="42.31159" lon="2.64466">
        <ele>811</ele>
        <time>2022-08-15T20:09:59Z</time>
      </trkpt>
      <trkpt lat="42.31168" lon="2.64428">
        <ele>813</ele>
        <time>2022-08-15T20:10:39Z</time>
      </trkpt>
      <trkpt lat="42.31166" lon="2.64379">
        <ele>814</ele>
        <time>2022-08-15T20:11:27Z</time>
      </trkpt>
      <trkpt lat="42.31174" lon="2.64363">
        <ele>820</ele>
        <time>2022-08-15T20:11:46Z</time>
      </trkpt>
      <trkpt lat="42.31174" lon="2.64354">
        <ele>821</ele>
        <time>2022-08-15T20:11:55Z</time>
      </trkpt>
      <trkpt lat="42.3117" lon="2.64349">
        <ele>819</ele>
        <time>2022-08-15T20:12:02Z</time>
      </trkpt>
      <trkpt lat="42.3116" lon="2.64345">
        <ele>816</ele>
        <time>2022-08-15T20:12:16Z</time>
      </trkpt>
      <trkpt lat="42.31137" lon="2.64296">
        <ele>821</ele>
        <time>2022-08-15T20:13:14Z</time>
      </trkpt>
      <trkpt lat="42.31134" lon="2.64282">
        <ele>824</ele>
        <time>2022-08-15T20:13:28Z</time>
      </trkpt>
      <trkpt lat="42.31128" lon="2.64269">
        <ele>826</ele>
        <time>2022-08-15T20:13:43Z</time>
      </trkpt>
      <trkpt lat="42.31118" lon="2.6422">
        <ele>838</ele>
        <time>2022-08-15T20:14:33Z</time>
      </trkpt>
      <trkpt lat="42.31104" lon="2.64187">
        <ele>842</ele>
        <time>2022-08-15T20:15:11Z</time>
      </trkpt>
      <trkpt lat="42.31102" lon="2.64178">
        <ele>845</ele>
        <time>2022-08-15T20:15:20Z</time>
      </trkpt>
      <trkpt lat="42.31104" lon="2.64155">
        <ele>852</ele>
        <time>2022-08-15T20:15:43Z</time>
      </trkpt>
      <trkpt lat="42.31097" lon="2.64135">
        <ele>854</ele>
        <time>2022-08-15T20:16:05Z</time>
      </trkpt>
      <trkpt lat="42.31089" lon="2.64137">
        <ele>850</ele>
        <time>2022-08-15T20:16:16Z</time>
      </trkpt>
      <trkpt lat="42.3109" lon="2.64134">
        <ele>851</ele>
        <time>2022-08-15T20:16:19Z</time>
      </trkpt>
      <trkpt lat="42.31075" lon="2.64136">
        <ele>848</ele>
        <time>2022-08-15T20:16:39Z</time>
      </trkpt>
      <trkpt lat="42.31066" lon="2.64121">
        <ele>852</ele>
        <time>2022-08-15T20:16:58Z</time>
      </trkpt>
      <trkpt lat="42.31064" lon="2.64098">
        <ele>857</ele>
        <time>2022-08-15T20:17:21Z</time>
      </trkpt>
      <trkpt lat="42.31067" lon="2.64095">
        <ele>858</ele>
        <time>2022-08-15T20:17:26Z</time>
      </trkpt>
      <trkpt lat="42.31068" lon="2.64089">
        <ele>859</ele>
        <time>2022-08-15T20:17:32Z</time>
      </trkpt>
      <trkpt lat="42.31073" lon="2.6409">
        <ele>859</ele>
        <time>2022-08-15T20:17:39Z</time>
      </trkpt>
      <trkpt lat="42.31077" lon="2.64077">
        <ele>863</ele>
        <time>2022-08-15T20:17:53Z</time>
      </trkpt>
      <trkpt lat="42.31081" lon="2.64078">
        <ele>862</ele>
        <time>2022-08-15T20:17:58Z</time>
      </trkpt>
      <trkpt lat="42.31083" lon="2.64075">
        <ele>863</ele>
        <time>2022-08-15T20:18:02Z</time>
      </trkpt>
      <trkpt lat="42.31083" lon="2.64063">
        <ele>867</ele>
        <time>2022-08-15T20:18:14Z</time>
      </trkpt>
      <trkpt lat="42.31087" lon="2.64059">
        <ele>869</ele>
        <time>2022-08-15T20:18:20Z</time>
      </trkpt>
      <trkpt lat="42.31088" lon="2.64047">
        <ele>873</ele>
        <time>2022-08-15T20:18:32Z</time>
      </trkpt>
      <trkpt lat="42.31082" lon="2.64035">
        <ele>874</ele>
        <time>2022-08-15T20:18:47Z</time>
      </trkpt>
      <trkpt lat="42.31074" lon="2.6399">
        <ele>888</ele>
        <time>2022-08-15T20:19:32Z</time>
      </trkpt>
      <trkpt lat="42.3107" lon="2.6399">
        <ele>887</ele>
        <time>2022-08-15T20:19:38Z</time>
      </trkpt>
      <trkpt lat="42.31057" lon="2.63983">
        <ele>889</ele>
        <time>2022-08-15T20:19:56Z</time>
      </trkpt>
      <trkpt lat="42.31045" lon="2.63981">
        <ele>890</ele>
        <time>2022-08-15T20:20:12Z</time>
      </trkpt>
      <trkpt lat="42.3103" lon="2.63984">
        <ele>888</ele>
        <time>2022-08-15T20:20:33Z</time>
      </trkpt>
      <trkpt lat="42.31019" lon="2.63989">
        <ele>887</ele>
        <time>2022-08-15T20:20:48Z</time>
      </trkpt>
      <trkpt lat="42.31012" lon="2.63983">
        <ele>888</ele>
        <time>2022-08-15T20:20:59Z</time>
      </trkpt>
      <trkpt lat="42.31011" lon="2.6396">
        <ele>893</ele>
        <time>2022-08-15T20:21:22Z</time>
      </trkpt>
      <trkpt lat="42.31019" lon="2.63955">
        <ele>895</ele>
        <time>2022-08-15T20:21:34Z</time>
      </trkpt>
      <trkpt lat="42.31017" lon="2.63936">
        <ele>899</ele>
        <time>2022-08-15T20:21:53Z</time>
      </trkpt>
      <trkpt lat="42.31021" lon="2.63915">
        <ele>905</ele>
        <time>2022-08-15T20:22:14Z</time>
      </trkpt>
      <trkpt lat="42.31016" lon="2.63905">
        <ele>907</ele>
        <time>2022-08-15T20:22:26Z</time>
      </trkpt>
      <trkpt lat="42.3102" lon="2.639">
        <ele>909</ele>
        <time>2022-08-15T20:22:33Z</time>
      </trkpt>
      <trkpt lat="42.31016" lon="2.63885">
        <ele>912</ele>
        <time>2022-08-15T20:22:49Z</time>
      </trkpt>
      <trkpt lat="42.31017" lon="2.63875">
        <ele>915</ele>
        <time>2022-08-15T20:22:59Z</time>
      </trkpt>
      <trkpt lat="42.31008" lon="2.63834">
        <ele>923</ele>
        <time>2022-08-15T20:23:41Z</time>
      </trkpt>
      <trkpt lat="42.31013" lon="2.63816">
        <ele>930</ele>
        <time>2022-08-15T20:24:00Z</time>
      </trkpt>
      <trkpt lat="42.31011" lon="2.63815">
        <ele>929</ele>
        <time>2022-08-15T20:24:03Z</time>
      </trkpt>
      <trkpt lat="42.31012" lon="2.63807">
        <ele>932</ele>
        <time>2022-08-15T20:24:11Z</time>
      </trkpt>
      <trkpt lat="42.31009" lon="2.63805">
        <ele>931</ele>
        <time>2022-08-15T20:24:15Z</time>
      </trkpt>
      <trkpt lat="42.31011" lon="2.63803">
        <ele>933</ele>
        <time>2022-08-15T20:24:19Z</time>
      </trkpt>
      <trkpt lat="42.31006" lon="2.63775">
        <ele>939</ele>
        <time>2022-08-15T20:24:47Z</time>
      </trkpt>
      <trkpt lat="42.31" lon="2.63762">
        <ele>940</ele>
        <time>2022-08-15T20:25:02Z</time>
      </trkpt>
      <trkpt lat="42.30989" lon="2.63748">
        <ele>940</ele>
        <time>2022-08-15T20:25:22Z</time>
      </trkpt>
      <trkpt lat="42.30957" lon="2.63695">
        <ele>945</ele>
        <time>2022-08-15T20:26:30Z</time>
      </trkpt>
      <trkpt lat="42.3093" lon="2.63672">
        <ele>941</ele>
        <time>2022-08-15T20:27:13Z</time>
      </trkpt>
      <trkpt lat="42.30929" lon="2.63646">
        <ele>949</ele>
        <time>2022-08-15T20:27:38Z</time>
      </trkpt>
      <trkpt lat="42.30932" lon="2.63631">
        <ele>955</ele>
        <time>2022-08-15T20:27:54Z</time>
      </trkpt>
      <trkpt lat="42.30921" lon="2.63617">
        <ele>955</ele>
        <time>2022-08-15T20:28:14Z</time>
      </trkpt>
      <trkpt lat="42.30886" lon="2.63583">
        <ele>950</ele>
        <time>2022-08-15T20:29:11Z</time>
      </trkpt>
      <trkpt lat="42.30872" lon="2.63562">
        <ele>950</ele>
        <time>2022-08-15T20:29:39Z</time>
      </trkpt>
      <trkpt lat="42.30854" lon="2.63541">
        <ele>947</ele>
        <time>2022-08-15T20:30:11Z</time>
      </trkpt>
      <trkpt lat="42.30849" lon="2.63509">
        <ele>952</ele>
        <time>2022-08-15T20:30:43Z</time>
      </trkpt>
      <trkpt lat="42.30821" lon="2.63447">
        <ele>949</ele>
        <time>2022-08-15T20:31:55Z</time>
      </trkpt>
      <trkpt lat="42.30813" lon="2.63416">
        <ele>952</ele>
        <time>2022-08-15T20:32:27Z</time>
      </trkpt>
      <trkpt lat="42.30813" lon="2.63401">
        <ele>956</ele>
        <time>2022-08-15T20:32:42Z</time>
      </trkpt>
      <trkpt lat="42.30819" lon="2.63359">
        <ele>969</ele>
        <time>2022-08-15T20:33:24Z</time>
      </trkpt>
      <trkpt lat="42.30812" lon="2.63337">
        <ele>972</ele>
        <time>2022-08-15T20:33:48Z</time>
      </trkpt>
      <trkpt lat="42.30803" lon="2.63321">
        <ele>975</ele>
        <time>2022-08-15T20:34:08Z</time>
      </trkpt>
      <trkpt lat="42.30775" lon="2.63284">
        <ele>979</ele>
        <time>2022-08-15T20:35:00Z</time>
      </trkpt>
      <trkpt lat="42.30748" lon="2.63266">
        <ele>978</ele>
        <time>2022-08-15T20:35:40Z</time>
      </trkpt>
      <trkpt lat="42.30736" lon="2.63264">
        <ele>981</ele>
        <time>2022-08-15T20:35:56Z</time>
      </trkpt>
      <trkpt lat="42.30729" lon="2.63257">
        <ele>984</ele>
        <time>2022-08-15T20:36:08Z</time>
      </trkpt>
      <trkpt lat="42.30759" lon="2.63232">
        <ele>989</ele>
        <time>2022-08-15T20:36:55Z</time>
      </trkpt>
      <trkpt lat="42.30756" lon="2.63222">
        <ele>991</ele>
        <time>2022-08-15T20:37:06Z</time>
      </trkpt>
      <trkpt lat="42.30732" lon="2.63206">
        <ele>994</ele>
        <time>2022-08-15T20:37:41Z</time>
      </trkpt>
      <trkpt lat="42.30733" lon="2.63195">
        <ele>996</ele>
        <time>2022-08-15T20:37:52Z</time>
      </trkpt>
      <trkpt lat="42.30738" lon="2.63182">
        <ele>998</ele>
        <time>2022-08-15T20:38:07Z</time>
      </trkpt>
      <trkpt lat="42.3073" lon="2.63154">
        <ele>1000</ele>
        <time>2022-08-15T20:38:36Z</time>
      </trkpt>
      <trkpt lat="42.30753" lon="2.63158">
        <ele>1001</ele>
        <time>2022-08-15T20:39:07Z</time>
      </trkpt>
      <trkpt lat="42.30763" lon="2.63163">
        <ele>1005</ele>
        <time>2022-08-15T20:39:22Z</time>
      </trkpt>
      <trkpt lat="42.30793" lon="2.63166">
        <ele>1017</ele>
        <time>2022-08-15T20:40:02Z</time>
      </trkpt>
      <trkpt lat="42.30802" lon="2.63177">
        <ele>1017</ele>
        <time>2022-08-15T20:40:18Z</time>
      </trkpt>
      <trkpt lat="42.30801" lon="2.63183">
        <ele>1015</ele>
        <time>2022-08-15T20:40:24Z</time>
      </trkpt>
      <trkpt lat="42.30803" lon="2.63188">
        <ele>1015</ele>
        <time>2022-08-15T20:40:30Z</time>
      </trkpt>
      <trkpt lat="42.30802" lon="2.63186">
        <ele>1015</ele>
        <time>2022-08-15T20:40:32Z</time>
      </trkpt>
      <trkpt lat="42.30806" lon="2.63183">
        <ele>1017</ele>
        <time>2022-08-15T20:40:38Z</time>
      </trkpt>
      <trkpt lat="42.30807" lon="2.63173">
        <ele>1020</ele>
        <time>2022-08-15T20:40:48Z</time>
      </trkpt>
      <trkpt lat="42.30813" lon="2.63169">
        <ele>1024</ele>
        <time>2022-08-15T20:40:57Z</time>
      </trkpt>
      <trkpt lat="42.30816" lon="2.63147">
        <ele>1029</ele>
        <time>2022-08-15T20:41:19Z</time>
      </trkpt>
      <trkpt lat="42.30817" lon="2.63155">
        <ele>1028</ele>
        <time>2022-08-15T20:41:27Z</time>
      </trkpt>
      <trkpt lat="42.30814" lon="2.6315">
        <ele>1027</ele>
        <time>2022-08-15T20:41:33Z</time>
      </trkpt>
      <trkpt lat="42.30836" lon="2.63096">
        <ele>1050</ele>
        <time>2022-08-15T20:42:34Z</time>
      </trkpt>
      <trkpt lat="42.30841" lon="2.63092">
        <ele>1054</ele>
        <time>2022-08-15T20:42:42Z</time>
      </trkpt>
      <trkpt lat="42.30848" lon="2.63094">
        <ele>1057</ele>
        <time>2022-08-15T20:42:52Z</time>
      </trkpt>
      <trkpt lat="42.30859" lon="2.6308">
        <ele>1066</ele>
        <time>2022-08-15T20:43:12Z</time>
      </trkpt>
      <trkpt lat="42.30863" lon="2.6307">
        <ele>1068</ele>
        <time>2022-08-15T20:43:23Z</time>
      </trkpt>
      <trkpt lat="42.30876" lon="2.63069">
        <ele>1077</ele>
        <time>2022-08-15T20:43:40Z</time>
      </trkpt>
      <trkpt lat="42.3088" lon="2.63065">
        <ele>1079</ele>
        <time>2022-08-15T20:43:47Z</time>
      </trkpt>
      <trkpt lat="42.30886" lon="2.63064">
        <ele>1083</ele>
        <time>2022-08-15T20:43:55Z</time>
      </trkpt>
      <trkpt lat="42.30892" lon="2.63056">
        <ele>1088</ele>
        <time>2022-08-15T20:44:06Z</time>
      </trkpt>
      <trkpt lat="42.30892" lon="2.6306">
        <ele>1088</ele>
        <time>2022-08-15T20:44:10Z</time>
      </trkpt>
      <trkpt lat="42.30898" lon="2.63059">
        <ele>1092</ele>
        <time>2022-08-15T20:44:18Z</time>
      </trkpt>
      <trkpt lat="42.30905" lon="2.6305">
        <ele>1098</ele>
        <time>2022-08-15T20:44:31Z</time>
      </trkpt>
      <trkpt lat="42.30911" lon="2.63049">
        <ele>1102</ele>
        <time>2022-08-15T20:44:39Z</time>
      </trkpt>
      <trkpt lat="42.30922" lon="2.63027">
        <ele>1113</ele>
        <time>2022-08-15T20:45:05Z</time>
      </trkpt>
      <trkpt lat="42.30932" lon="2.63026">
        <ele>1120</ele>
        <time>2022-08-15T20:45:19Z</time>
      </trkpt>
      <trkpt lat="42.30935" lon="2.63028">
        <ele>1122</ele>
        <time>2022-08-15T20:45:23Z</time>
      </trkpt>
      <trkpt lat="42.30942" lon="2.6302">
        <ele>1129</ele>
        <time>2022-08-15T20:45:35Z</time>
      </trkpt>
      <trkpt lat="42.30944" lon="2.63014">
        <ele>1131</ele>
        <time>2022-08-15T20:45:42Z</time>
      </trkpt>
      <trkpt lat="42.30949" lon="2.63017">
        <ele>1134</ele>
        <time>2022-08-15T20:45:49Z</time>
      </trkpt>
      <trkpt lat="42.30954" lon="2.63017">
        <ele>1138</ele>
        <time>2022-08-15T20:45:56Z</time>
      </trkpt>
      <trkpt lat="42.30954" lon="2.63015">
        <ele>1138</ele>
        <time>2022-08-15T20:45:58Z</time>
      </trkpt>
      <trkpt lat="42.30963" lon="2.63021">
        <ele>1143</ele>
        <time>2022-08-15T20:46:11Z</time>
      </trkpt>
      <trkpt lat="42.30967" lon="2.63013">
        <ele>1148</ele>
        <time>2022-08-15T20:46:21Z</time>
      </trkpt>
      <trkpt lat="42.30972" lon="2.63016">
        <ele>1151</ele>
        <time>2022-08-15T20:46:28Z</time>
      </trkpt>
      <trkpt lat="42.30972" lon="2.6302">
        <ele>1150</ele>
        <time>2022-08-15T20:46:32Z</time>
      </trkpt>
      <trkpt lat="42.30973" lon="2.63017">
        <ele>1151</ele>
        <time>2022-08-15T20:46:35Z</time>
      </trkpt>
      <trkpt lat="42.30978" lon="2.6302">
        <ele>1154</ele>
        <time>2022-08-15T20:46:43Z</time>
      </trkpt>
      <trkpt lat="42.30985" lon="2.63012">
        <ele>1161</ele>
        <time>2022-08-15T20:46:55Z</time>
      </trkpt>
      <trkpt lat="42.30989" lon="2.63014">
        <ele>1163</ele>
        <time>2022-08-15T20:47:01Z</time>
      </trkpt>
      <trkpt lat="42.30991" lon="2.6301">
        <ele>1166</ele>
        <time>2022-08-15T20:47:05Z</time>
      </trkpt>
      <trkpt lat="42.30995" lon="2.63015">
        <ele>1167</ele>
        <time>2022-08-15T20:47:13Z</time>
      </trkpt>
      <trkpt lat="42.30999" lon="2.63001">
        <ele>1174</ele>
        <time>2022-08-15T20:47:27Z</time>
      </trkpt>
      <trkpt lat="42.3101" lon="2.62993">
        <ele>1183</ele>
        <time>2022-08-15T20:47:44Z</time>
      </trkpt>
      <trkpt lat="42.31012" lon="2.62993">
        <ele>1184</ele>
        <time>2022-08-15T20:47:47Z</time>
      </trkpt>
      <trkpt lat="42.31014" lon="2.63">
        <ele>1184</ele>
        <time>2022-08-15T20:47:54Z</time>
      </trkpt>
      <trkpt lat="42.31012" lon="2.63009">
        <ele>1180</ele>
        <time>2022-08-15T20:48:03Z</time>
      </trkpt>
      <trkpt lat="42.31014" lon="2.63002">
        <ele>1184</ele>
        <time>2022-08-15T20:48:11Z</time>
      </trkpt>
      <trkpt lat="42.31024" lon="2.62994">
        <ele>1192</ele>
        <time>2022-08-15T20:48:26Z</time>
      </trkpt>
      <trkpt lat="42.31024" lon="2.62991">
        <ele>1193</ele>
        <time>2022-08-15T20:48:29Z</time>
      </trkpt>
      <trkpt lat="42.31031" lon="2.62997">
        <ele>1196</ele>
        <time>2022-08-15T20:48:40Z</time>
      </trkpt>
      <trkpt lat="42.31037" lon="2.62996">
        <ele>1200</ele>
        <time>2022-08-15T20:48:48Z</time>
      </trkpt>
      <trkpt lat="42.31038" lon="2.62998">
        <ele>1200</ele>
        <time>2022-08-15T20:48:51Z</time>
      </trkpt>
      <trkpt lat="42.31041" lon="2.62994">
        <ele>1203</ele>
        <time>2022-08-15T20:48:56Z</time>
      </trkpt>
      <trkpt lat="42.31051" lon="2.6299">
        <ele>1211</ele>
        <time>2022-08-15T20:49:10Z</time>
      </trkpt>
      <trkpt lat="42.31052" lon="2.62995">
        <ele>1210</ele>
        <time>2022-08-15T20:49:15Z</time>
      </trkpt>
      <trkpt lat="42.31052" lon="2.62991">
        <ele>1211</ele>
        <time>2022-08-15T20:49:19Z</time>
      </trkpt>
      <trkpt lat="42.31054" lon="2.62994">
        <ele>1212</ele>
        <time>2022-08-15T20:49:23Z</time>
      </trkpt>
      <trkpt lat="42.31069" lon="2.63001">
        <ele>1219</ele>
        <time>2022-08-15T20:49:45Z</time>
      </trkpt>
      <trkpt lat="42.31072" lon="2.62999">
        <ele>1222</ele>
        <time>2022-08-15T20:49:49Z</time>
      </trkpt>
      <trkpt lat="42.31075" lon="2.63002">
        <ele>1223</ele>
        <time>2022-08-15T20:49:54Z</time>
      </trkpt>
      <trkpt lat="42.31082" lon="2.62991">
        <ele>1231</ele>
        <time>2022-08-15T20:50:08Z</time>
      </trkpt>
      <trkpt lat="42.31083" lon="2.62993">
        <ele>1231</ele>
        <time>2022-08-15T20:50:11Z</time>
      </trkpt>
      <trkpt lat="42.31092" lon="2.62991">
        <ele>1238</ele>
        <time>2022-08-15T20:50:23Z</time>
      </trkpt>
      <trkpt lat="42.31093" lon="2.62988">
        <ele>1240</ele>
        <time>2022-08-15T20:50:26Z</time>
      </trkpt>
      <trkpt lat="42.31093" lon="2.62992">
        <ele>1239</ele>
        <time>2022-08-15T20:50:30Z</time>
      </trkpt>
      <trkpt lat="42.31097" lon="2.62985">
        <ele>1244</ele>
        <time>2022-08-15T20:50:39Z</time>
      </trkpt>
      <trkpt lat="42.31099" lon="2.62988">
        <ele>1244</ele>
        <time>2022-08-15T20:50:43Z</time>
      </trkpt>
      <trkpt lat="42.311" lon="2.62982">
        <ele>1247</ele>
        <time>2022-08-15T20:50:49Z</time>
      </trkpt>
      <trkpt lat="42.31102" lon="2.62987">
        <ele>1247</ele>
        <time>2022-08-15T20:50:54Z</time>
      </trkpt>
      <trkpt lat="42.31108" lon="2.62987">
        <ele>1251</ele>
        <time>2022-08-15T20:51:02Z</time>
      </trkpt>
      <trkpt lat="42.31113" lon="2.62992">
        <ele>1254</ele>
        <time>2022-08-15T20:51:11Z</time>
      </trkpt>
      <trkpt lat="42.31112" lon="2.62989">
        <ele>1254</ele>
        <time>2022-08-15T20:51:14Z</time>
      </trkpt>
      <trkpt lat="42.31122" lon="2.62985">
        <ele>1262</ele>
        <time>2022-08-15T20:51:28Z</time>
      </trkpt>
      <trkpt lat="42.31122" lon="2.6299">
        <ele>1261</ele>
        <time>2022-08-15T20:51:33Z</time>
      </trkpt>
      <trkpt lat="42.31132" lon="2.62983">
        <ele>1270</ele>
        <time>2022-08-15T20:51:48Z</time>
      </trkpt>
      <trkpt lat="42.31131" lon="2.62987">
        <ele>1268</ele>
        <time>2022-08-15T20:51:52Z</time>
      </trkpt>
      <trkpt lat="42.31135" lon="2.62984">
        <ele>1272</ele>
        <time>2022-08-15T20:51:58Z</time>
      </trkpt>
      <trkpt lat="42.31158" lon="2.63004">
        <ele>1284</ele>
        <time>2022-08-15T20:52:35Z</time>
      </trkpt>
      <trkpt lat="42.31169" lon="2.63008">
        <ele>1291</ele>
        <time>2022-08-15T20:52:50Z</time>
      </trkpt>
      <trkpt lat="42.31172" lon="2.63012">
        <ele>1292</ele>
        <time>2022-08-15T20:52:55Z</time>
      </trkpt>
      <trkpt lat="42.31176" lon="2.63013">
        <ele>1293</ele>
        <time>2022-08-15T20:53:01Z</time>
      </trkpt>
      <trkpt lat="42.31179" lon="2.63011">
        <ele>1295</ele>
        <time>2022-08-15T20:53:05Z</time>
      </trkpt>
      <trkpt lat="42.31182" lon="2.63025">
        <ele>1294</ele>
        <time>2022-08-15T20:53:20Z</time>
      </trkpt>
      <trkpt lat="42.31204" lon="2.63042">
        <ele>1302</ele>
        <time>2022-08-15T20:53:54Z</time>
      </trkpt>
      <trkpt lat="42.31206" lon="2.63047">
        <ele>1302</ele>
        <time>2022-08-15T20:53:59Z</time>
      </trkpt>
      <trkpt lat="42.3121" lon="2.63048">
        <ele>1304</ele>
        <time>2022-08-15T20:54:05Z</time>
      </trkpt>
      <trkpt lat="42.31218" lon="2.6304">
        <ele>1310</ele>
        <time>2022-08-15T20:54:18Z</time>
      </trkpt>
      <trkpt lat="42.31225" lon="2.63059">
        <ele>1311</ele>
        <time>2022-08-15T20:54:39Z</time>
      </trkpt>
      <trkpt lat="42.31228" lon="2.6308">
        <ele>1310</ele>
        <time>2022-08-15T20:55:00Z</time>
      </trkpt>
      <trkpt lat="42.31234" lon="2.63095">
        <ele>1311</ele>
        <time>2022-08-15T20:55:17Z</time>
      </trkpt>
      <trkpt lat="42.31239" lon="2.63098">
        <ele>1314</ele>
        <time>2022-08-15T20:55:24Z</time>
      </trkpt>
      <trkpt lat="42.31251" lon="2.63099">
        <ele>1320</ele>
        <time>2022-08-15T20:55:40Z</time>
      </trkpt>
      <trkpt lat="42.31253" lon="2.63109">
        <ele>1318</ele>
        <time>2022-08-15T20:55:50Z</time>
      </trkpt>
      <trkpt lat="42.31259" lon="2.63108">
        <ele>1318</ele>
        <time>2022-08-15T20:55:58Z</time>
      </trkpt>
      <trkpt lat="42.31282" lon="2.63119">
        <ele>1315</ele>
        <time>2022-08-15T20:56:31Z</time>
      </trkpt>
      <trkpt lat="42.31284" lon="2.63117">
        <ele>1315</ele>
        <time>2022-08-15T20:56:34Z</time>
      </trkpt>
      <trkpt lat="42.31283" lon="2.63124">
        <ele>1314</ele>
        <time>2022-08-15T20:56:41Z</time>
      </trkpt>
      <trkpt lat="42.31286" lon="2.63125">
        <ele>1314</ele>
        <time>2022-08-15T20:56:45Z</time>
      </trkpt>
      <trkpt lat="42.31284" lon="2.63128">
        <ele>1314</ele>
        <time>2022-08-15T20:56:49Z</time>
      </trkpt>
      <trkpt lat="42.31282" lon="2.63127">
        <ele>1314</ele>
        <time>2022-08-15T20:56:52Z</time>
      </trkpt>
      <trkpt lat="42.31294" lon="2.63128">
        <ele>1314</ele>
        <time>2022-08-15T20:57:08Z</time>
      </trkpt>
      <trkpt lat="42.31297" lon="2.63126">
        <ele>1314</ele>
        <time>2022-08-15T20:57:13Z</time>
      </trkpt>
      <trkpt lat="42.31295" lon="2.63114">
        <ele>1314</ele>
        <time>2022-08-15T20:57:25Z</time>
      </trkpt>
      <trkpt lat="42.31299" lon="2.63109">
        <ele>1314</ele>
        <time>2022-08-15T20:57:32Z</time>
      </trkpt>
      <trkpt lat="42.31297" lon="2.6311">
        <ele>1314</ele>
        <time>2022-08-15T20:57:35Z</time>
      </trkpt>
      <trkpt lat="42.31296" lon="2.63108">
        <ele>1315</ele>
        <time>2022-08-15T20:57:37Z</time>
      </trkpt>
      <trkpt lat="42.31296" lon="2.6311">
        <ele>1315</ele>
        <time>2022-08-15T20:57:39Z</time>
      </trkpt>
      <trkpt lat="42.31295" lon="2.63105">
        <ele>1315</ele>
        <time>2022-08-15T20:57:44Z</time>
      </trkpt>
      <trkpt lat="42.31292" lon="2.63105">
        <ele>1315</ele>
        <time>2022-08-15T20:57:48Z</time>
      </trkpt>
      <trkpt lat="42.31294" lon="2.63104">
        <ele>1315</ele>
        <time>2022-08-15T20:57:51Z</time>
      </trkpt>
      <trkpt lat="42.31284" lon="2.63081">
        <ele>1318</ele>
        <time>2022-08-15T20:58:18Z</time>
      </trkpt>
      <trkpt lat="42.31281" lon="2.63066">
        <ele>1317</ele>
        <time>2022-08-15T20:58:33Z</time>
      </trkpt>
      <trkpt lat="42.31278" lon="2.63063">
        <ele>1318</ele>
        <time>2022-08-15T20:58:38Z</time>
      </trkpt>
      <trkpt lat="42.31273" lon="2.63064">
        <ele>1319</ele>
        <time>2022-08-15T20:58:45Z</time>
      </trkpt>
      <trkpt lat="42.31272" lon="2.63053">
        <ele>1319</ele>
        <time>2022-08-15T20:58:56Z</time>
      </trkpt>
      <trkpt lat="42.31265" lon="2.63032">
        <ele>1322</ele>
        <time>2022-08-15T20:59:18Z</time>
      </trkpt>
      <trkpt lat="42.31259" lon="2.63024">
        <ele>1325</ele>
        <time>2022-08-15T20:59:30Z</time>
      </trkpt>
      <trkpt lat="42.31261" lon="2.63027">
        <ele>1324</ele>
        <time>2022-08-15T20:59:34Z</time>
      </trkpt>
      <trkpt lat="42.31264" lon="2.63027">
        <ele>1323</ele>
        <time>2022-08-15T20:59:38Z</time>
      </trkpt>
      <trkpt lat="42.31262" lon="2.63027">
        <ele>1324</ele>
        <time>2022-08-15T20:59:40Z</time>
      </trkpt>
      <trkpt lat="42.31263" lon="2.63029">
        <ele>1323</ele>
        <time>2022-08-15T20:59:43Z</time>
      </trkpt>
      <trkpt lat="42.31262" lon="2.63025">
        <ele>1324</ele>
        <time>2022-08-15T20:59:47Z</time>
      </trkpt>
      <trkpt lat="42.31269" lon="2.6304">
        <ele>1320</ele>
        <time>2022-08-15T21:00:04Z</time>
      </trkpt>
      <trkpt lat="42.31275" lon="2.63063">
        <ele>1319</ele>
        <time>2022-08-15T21:00:28Z</time>
      </trkpt>
      <trkpt lat="42.31281" lon="2.63064">
        <ele>1317</ele>
        <time>2022-08-15T21:00:36Z</time>
      </trkpt>
      <trkpt lat="42.31284" lon="2.63083">
        <ele>1318</ele>
        <time>2022-08-15T21:00:56Z</time>
      </trkpt>
      <trkpt lat="42.31289" lon="2.63095">
        <ele>1316</ele>
        <time>2022-08-15T21:01:09Z</time>
      </trkpt>
      <trkpt lat="42.31298" lon="2.63104">
        <ele>1315</ele>
        <time>2022-08-15T21:01:24Z</time>
      </trkpt>
      <trkpt lat="42.31297" lon="2.63108">
        <ele>1315</ele>
        <time>2022-08-15T21:01:28Z</time>
      </trkpt>
      <trkpt lat="42.31299" lon="2.6311">
        <ele>1314</ele>
        <time>2022-08-15T21:01:32Z</time>
      </trkpt>
      <trkpt lat="42.31294" lon="2.6311">
        <ele>1315</ele>
        <time>2022-08-15T21:01:38Z</time>
      </trkpt>
      <trkpt lat="42.31296" lon="2.63127">
        <ele>1314</ele>
        <time>2022-08-15T21:01:55Z</time>
      </trkpt>
      <trkpt lat="42.31287" lon="2.63126">
        <ele>1314</ele>
        <time>2022-08-15T21:02:07Z</time>
      </trkpt>
      <trkpt lat="42.31282" lon="2.63123">
        <ele>1314</ele>
        <time>2022-08-15T21:02:15Z</time>
      </trkpt>
      <trkpt lat="42.3129" lon="2.63101">
        <ele>1316</ele>
        <time>2022-08-15T21:02:39Z</time>
      </trkpt>
      <trkpt lat="42.3129" lon="2.6312">
        <ele>1314</ele>
        <time>2022-08-15T21:02:58Z</time>
      </trkpt>
      <trkpt lat="42.31288" lon="2.63122">
        <ele>1314</ele>
        <time>2022-08-15T21:03:01Z</time>
      </trkpt>
      <trkpt lat="42.31307" lon="2.63142">
        <ele>1314</ele>
        <time>2022-08-15T21:03:33Z</time>
      </trkpt>
      <trkpt lat="42.3131" lon="2.6315">
        <ele>1314</ele>
        <time>2022-08-15T21:03:42Z</time>
      </trkpt>
      <trkpt lat="42.31332" lon="2.63162">
        <ele>1316</ele>
        <time>2022-08-15T21:04:14Z</time>
      </trkpt>
      <trkpt lat="42.31338" lon="2.63168">
        <ele>1314</ele>
        <time>2022-08-15T21:04:24Z</time>
      </trkpt>
      <trkpt lat="42.31353" lon="2.63192">
        <ele>1304</ele>
        <time>2022-08-15T21:04:55Z</time>
      </trkpt>
      <trkpt lat="42.31358" lon="2.63207">
        <ele>1300</ele>
        <time>2022-08-15T21:05:11Z</time>
      </trkpt>
      <trkpt lat="42.31366" lon="2.6321">
        <ele>1296</ele>
        <time>2022-08-15T21:05:22Z</time>
      </trkpt>
      <trkpt lat="42.31366" lon="2.63213">
        <ele>1296</ele>
        <time>2022-08-15T21:05:25Z</time>
      </trkpt>
      <trkpt lat="42.31371" lon="2.63212">
        <ele>1294</ele>
        <time>2022-08-15T21:05:32Z</time>
      </trkpt>
      <trkpt lat="42.31381" lon="2.6322">
        <ele>1289</ele>
        <time>2022-08-15T21:05:47Z</time>
      </trkpt>
      <trkpt lat="42.31384" lon="2.63223">
        <ele>1287</ele>
        <time>2022-08-15T21:05:52Z</time>
      </trkpt>
      <trkpt lat="42.31386" lon="2.63232">
        <ele>1286</ele>
        <time>2022-08-15T21:06:01Z</time>
      </trkpt>
      <trkpt lat="42.31393" lon="2.63239">
        <ele>1283</ele>
        <time>2022-08-15T21:06:13Z</time>
      </trkpt>
      <trkpt lat="42.31403" lon="2.63242">
        <ele>1279</ele>
        <time>2022-08-15T21:06:27Z</time>
      </trkpt>
      <trkpt lat="42.31414" lon="2.63259">
        <ele>1273</ele>
        <time>2022-08-15T21:06:49Z</time>
      </trkpt>
      <trkpt lat="42.31415" lon="2.63257">
        <ele>1273</ele>
        <time>2022-08-15T21:06:51Z</time>
      </trkpt>
      <trkpt lat="42.31417" lon="2.63258">
        <ele>1272</ele>
        <time>2022-08-15T21:06:54Z</time>
      </trkpt>
      <trkpt lat="42.31421" lon="2.63263">
        <ele>1268</ele>
        <time>2022-08-15T21:07:01Z</time>
      </trkpt>
      <trkpt lat="42.3142" lon="2.63269">
        <ele>1268</ele>
        <time>2022-08-15T21:07:07Z</time>
      </trkpt>
      <trkpt lat="42.31417" lon="2.63266">
        <ele>1270</ele>
        <time>2022-08-15T21:07:12Z</time>
      </trkpt>
      <trkpt lat="42.31424" lon="2.63265">
        <ele>1266</ele>
        <time>2022-08-15T21:07:22Z</time>
      </trkpt>
      <trkpt lat="42.31431" lon="2.63269">
        <ele>1261</ele>
        <time>2022-08-15T21:07:32Z</time>
      </trkpt>
      <trkpt lat="42.31444" lon="2.63288">
        <ele>1250</ele>
        <time>2022-08-15T21:07:58Z</time>
      </trkpt>
      <trkpt lat="42.31448" lon="2.63287">
        <ele>1248</ele>
        <time>2022-08-15T21:08:03Z</time>
      </trkpt>
      <trkpt lat="42.31457" lon="2.63277">
        <ele>1245</ele>
        <time>2022-08-15T21:08:18Z</time>
      </trkpt>
      <trkpt lat="42.31462" lon="2.63275">
        <ele>1242</ele>
        <time>2022-08-15T21:08:25Z</time>
      </trkpt>
      <trkpt lat="42.3147" lon="2.63262">
        <ele>1240</ele>
        <time>2022-08-15T21:08:42Z</time>
      </trkpt>
      <trkpt lat="42.31478" lon="2.6328">
        <ele>1233</ele>
        <time>2022-08-15T21:09:03Z</time>
      </trkpt>
      <trkpt lat="42.31479" lon="2.63288">
        <ele>1231</ele>
        <time>2022-08-15T21:09:11Z</time>
      </trkpt>
      <trkpt lat="42.31488" lon="2.63292">
        <ele>1226</ele>
        <time>2022-08-15T21:09:23Z</time>
      </trkpt>
      <trkpt lat="42.31495" lon="2.63309">
        <ele>1221</ele>
        <time>2022-08-15T21:09:43Z</time>
      </trkpt>
      <trkpt lat="42.31501" lon="2.63301">
        <ele>1218</ele>
        <time>2022-08-15T21:09:54Z</time>
      </trkpt>
      <trkpt lat="42.31512" lon="2.6331">
        <ele>1214</ele>
        <time>2022-08-15T21:10:11Z</time>
      </trkpt>
      <trkpt lat="42.31516" lon="2.63319">
        <ele>1212</ele>
        <time>2022-08-15T21:10:21Z</time>
      </trkpt>
      <trkpt lat="42.31535" lon="2.63329">
        <ele>1206</ele>
        <time>2022-08-15T21:10:49Z</time>
      </trkpt>
      <trkpt lat="42.31534" lon="2.63331">
        <ele>1207</ele>
        <time>2022-08-15T21:10:51Z</time>
      </trkpt>
      <trkpt lat="42.31541" lon="2.63333">
        <ele>1205</ele>
        <time>2022-08-15T21:11:01Z</time>
      </trkpt>
      <trkpt lat="42.31551" lon="2.63345">
        <ele>1201</ele>
        <time>2022-08-15T21:11:18Z</time>
      </trkpt>
      <trkpt lat="42.31567" lon="2.63356">
        <ele>1196</ele>
        <time>2022-08-15T21:11:42Z</time>
      </trkpt>
      <trkpt lat="42.31568" lon="2.63369">
        <ele>1194</ele>
        <time>2022-08-15T21:11:55Z</time>
      </trkpt>
      <trkpt lat="42.31574" lon="2.63366">
        <ele>1193</ele>
        <time>2022-08-15T21:12:04Z</time>
      </trkpt>
      <trkpt lat="42.31583" lon="2.6337">
        <ele>1191</ele>
        <time>2022-08-15T21:12:16Z</time>
      </trkpt>
      <trkpt lat="42.31592" lon="2.63379">
        <ele>1188</ele>
        <time>2022-08-15T21:12:31Z</time>
      </trkpt>
      <trkpt lat="42.31596" lon="2.63407">
        <ele>1187</ele>
        <time>2022-08-15T21:13:00Z</time>
      </trkpt>
      <trkpt lat="42.31595" lon="2.63421">
        <ele>1187</ele>
        <time>2022-08-15T21:13:13Z</time>
      </trkpt>
      <trkpt lat="42.31624" lon="2.63519">
        <ele>1178</ele>
        <time>2022-08-15T21:14:58Z</time>
      </trkpt>
      <trkpt lat="42.3163" lon="2.63531">
        <ele>1176</ele>
        <time>2022-08-15T21:15:12Z</time>
      </trkpt>
      <trkpt lat="42.31644" lon="2.63545">
        <ele>1174</ele>
        <time>2022-08-15T21:15:35Z</time>
      </trkpt>
      <trkpt lat="42.31645" lon="2.63553">
        <ele>1172</ele>
        <time>2022-08-15T21:15:43Z</time>
      </trkpt>
      <trkpt lat="42.31642" lon="2.63557">
        <ele>1172</ele>
        <time>2022-08-15T21:15:49Z</time>
      </trkpt>
      <trkpt lat="42.31643" lon="2.63563">
        <ele>1171</ele>
        <time>2022-08-15T21:15:55Z</time>
      </trkpt>
      <trkpt lat="42.3164" lon="2.63566">
        <ele>1170</ele>
        <time>2022-08-15T21:16:00Z</time>
      </trkpt>
      <trkpt lat="42.31642" lon="2.63574">
        <ele>1169</ele>
        <time>2022-08-15T21:16:08Z</time>
      </trkpt>
      <trkpt lat="42.3164" lon="2.63585">
        <ele>1167</ele>
        <time>2022-08-15T21:16:19Z</time>
      </trkpt>
      <trkpt lat="42.31631" lon="2.63599">
        <ele>1165</ele>
        <time>2022-08-15T21:16:38Z</time>
      </trkpt>
      <trkpt lat="42.31631" lon="2.63611">
        <ele>1163</ele>
        <time>2022-08-15T21:16:49Z</time>
      </trkpt>
      <trkpt lat="42.31644" lon="2.6364">
        <ele>1157</ele>
        <time>2022-08-15T21:17:23Z</time>
      </trkpt>
      <trkpt lat="42.31643" lon="2.63666">
        <ele>1153</ele>
        <time>2022-08-15T21:17:49Z</time>
      </trkpt>
      <trkpt lat="42.31645" lon="2.63685">
        <ele>1151</ele>
        <time>2022-08-15T21:18:08Z</time>
      </trkpt>
      <trkpt lat="42.31654" lon="2.63706">
        <ele>1148</ele>
        <time>2022-08-15T21:18:31Z</time>
      </trkpt>
      <trkpt lat="42.31659" lon="2.6371">
        <ele>1148</ele>
        <time>2022-08-15T21:18:39Z</time>
      </trkpt>
      <trkpt lat="42.3166" lon="2.63714">
        <ele>1147</ele>
        <time>2022-08-15T21:18:43Z</time>
      </trkpt>
      <trkpt lat="42.31657" lon="2.63711">
        <ele>1148</ele>
        <time>2022-08-15T21:18:48Z</time>
      </trkpt>
      <trkpt lat="42.31665" lon="2.63723">
        <ele>1146</ele>
        <time>2022-08-15T21:19:04Z</time>
      </trkpt>
      <trkpt lat="42.31688" lon="2.63734">
        <ele>1141</ele>
        <time>2022-08-15T21:19:37Z</time>
      </trkpt>
      <trkpt lat="42.31697" lon="2.63751">
        <ele>1137</ele>
        <time>2022-08-15T21:19:58Z</time>
      </trkpt>
      <trkpt lat="42.31698" lon="2.63789">
        <ele>1132</ele>
        <time>2022-08-15T21:20:35Z</time>
      </trkpt>
      <trkpt lat="42.31701" lon="2.63795">
        <ele>1131</ele>
        <time>2022-08-15T21:20:42Z</time>
      </trkpt>
      <trkpt lat="42.31703" lon="2.63816">
        <ele>1128</ele>
        <time>2022-08-15T21:21:03Z</time>
      </trkpt>
      <trkpt lat="42.31706" lon="2.63823">
        <ele>1126</ele>
        <time>2022-08-15T21:21:11Z</time>
      </trkpt>
      <trkpt lat="42.31704" lon="2.63846">
        <ele>1123</ele>
        <time>2022-08-15T21:21:34Z</time>
      </trkpt>
      <trkpt lat="42.31707" lon="2.63863">
        <ele>1121</ele>
        <time>2022-08-15T21:21:51Z</time>
      </trkpt>
      <trkpt lat="42.31705" lon="2.63881">
        <ele>1118</ele>
        <time>2022-08-15T21:22:09Z</time>
      </trkpt>
      <trkpt lat="42.31699" lon="2.63899">
        <ele>1115</ele>
        <time>2022-08-15T21:22:29Z</time>
      </trkpt>
      <trkpt lat="42.31696" lon="2.63934">
        <ele>1111</ele>
        <time>2022-08-15T21:23:03Z</time>
      </trkpt>
      <trkpt lat="42.31689" lon="2.63945">
        <ele>1110</ele>
        <time>2022-08-15T21:23:18Z</time>
      </trkpt>
      <trkpt lat="42.31687" lon="2.63958">
        <ele>1109</ele>
        <time>2022-08-15T21:23:31Z</time>
      </trkpt>
      <trkpt lat="42.31689" lon="2.63988">
        <ele>1105</ele>
        <time>2022-08-15T21:24:01Z</time>
      </trkpt>
      <trkpt lat="42.31681" lon="2.6403">
        <ele>1105</ele>
        <time>2022-08-15T21:24:43Z</time>
      </trkpt>
      <trkpt lat="42.31676" lon="2.64038">
        <ele>1105</ele>
        <time>2022-08-15T21:24:54Z</time>
      </trkpt>
      <trkpt lat="42.31677" lon="2.64043">
        <ele>1105</ele>
        <time>2022-08-15T21:24:59Z</time>
      </trkpt>
      <trkpt lat="42.3168" lon="2.6404">
        <ele>1105</ele>
        <time>2022-08-15T21:25:04Z</time>
      </trkpt>
      <trkpt lat="42.31677" lon="2.6407">
        <ele>1105</ele>
        <time>2022-08-15T21:25:34Z</time>
      </trkpt>
      <trkpt lat="42.31678" lon="2.64084">
        <ele>1105</ele>
        <time>2022-08-15T21:25:47Z</time>
      </trkpt>
      <trkpt lat="42.31682" lon="2.6409">
        <ele>1105</ele>
        <time>2022-08-15T21:25:55Z</time>
      </trkpt>
      <trkpt lat="42.31679" lon="2.64099">
        <ele>1106</ele>
        <time>2022-08-15T21:26:05Z</time>
      </trkpt>
      <trkpt lat="42.31688" lon="2.64106">
        <ele>1106</ele>
        <time>2022-08-15T21:26:19Z</time>
      </trkpt>
      <trkpt lat="42.31695" lon="2.64128">
        <ele>1106</ele>
        <time>2022-08-15T21:26:43Z</time>
      </trkpt>
      <trkpt lat="42.31692" lon="2.6416">
        <ele>1108</ele>
        <time>2022-08-15T21:27:15Z</time>
      </trkpt>
      <trkpt lat="42.31688" lon="2.6417">
        <ele>1109</ele>
        <time>2022-08-15T21:27:26Z</time>
      </trkpt>
      <trkpt lat="42.3169" lon="2.64203">
        <ele>1112</ele>
        <time>2022-08-15T21:27:58Z</time>
      </trkpt>
      <trkpt lat="42.31685" lon="2.64229">
        <ele>1114</ele>
        <time>2022-08-15T21:28:25Z</time>
      </trkpt>
      <trkpt lat="42.31688" lon="2.64263">
        <ele>1115</ele>
        <time>2022-08-15T21:28:59Z</time>
      </trkpt>
      <trkpt lat="42.31697" lon="2.64293">
        <ele>1114</ele>
        <time>2022-08-15T21:29:31Z</time>
      </trkpt>
      <trkpt lat="42.31722" lon="2.6432">
        <ele>1113</ele>
        <time>2022-08-15T21:30:13Z</time>
      </trkpt>
      <trkpt lat="42.31731" lon="2.64346">
        <ele>1114</ele>
        <time>2022-08-15T21:30:42Z</time>
      </trkpt>
      <trkpt lat="42.31732" lon="2.64382">
        <ele>1115</ele>
        <time>2022-08-15T21:31:17Z</time>
      </trkpt>
      <trkpt lat="42.31736" lon="2.64401">
        <ele>1115</ele>
        <time>2022-08-15T21:31:37Z</time>
      </trkpt>
      <trkpt lat="42.31736" lon="2.64436">
        <ele>1115</ele>
        <time>2022-08-15T21:32:11Z</time>
      </trkpt>
      <trkpt lat="42.31764" lon="2.64462">
        <ele>1113</ele>
        <time>2022-08-15T21:32:57Z</time>
      </trkpt>
      <trkpt lat="42.31791" lon="2.64492">
        <ele>1110</ele>
        <time>2022-08-15T21:33:43Z</time>
      </trkpt>
      <trkpt lat="42.31801" lon="2.64518">
        <ele>1110</ele>
        <time>2022-08-15T21:34:12Z</time>
      </trkpt>
      <trkpt lat="42.31807" lon="2.64596">
        <ele>1113</ele>
        <time>2022-08-15T21:35:30Z</time>
      </trkpt>
      <trkpt lat="42.31815" lon="2.64629">
        <ele>1116</ele>
        <time>2022-08-15T21:36:04Z</time>
      </trkpt>
      <trkpt lat="42.31816" lon="2.64651">
        <ele>1118</ele>
        <time>2022-08-15T21:36:26Z</time>
      </trkpt>
      <trkpt lat="42.31822" lon="2.64669">
        <ele>1120</ele>
        <time>2022-08-15T21:36:45Z</time>
      </trkpt>
      <trkpt lat="42.31823" lon="2.64682">
        <ele>1121</ele>
        <time>2022-08-15T21:36:58Z</time>
      </trkpt>
      <trkpt lat="42.31822" lon="2.64733">
        <ele>1126</ele>
        <time>2022-08-15T21:37:48Z</time>
      </trkpt>
      <trkpt lat="42.31817" lon="2.64742">
        <ele>1125</ele>
        <time>2022-08-15T21:37:59Z</time>
      </trkpt>
      <trkpt lat="42.31814" lon="2.6476">
        <ele>1126</ele>
        <time>2022-08-15T21:38:18Z</time>
      </trkpt>
      <trkpt lat="42.3182" lon="2.64769">
        <ele>1128</ele>
        <time>2022-08-15T21:38:30Z</time>
      </trkpt>
      <trkpt lat="42.31824" lon="2.64785">
        <ele>1130</ele>
        <time>2022-08-15T21:38:46Z</time>
      </trkpt>
      <trkpt lat="42.31834" lon="2.64854">
        <ele>1137</ele>
        <time>2022-08-15T21:39:56Z</time>
      </trkpt>
      <trkpt lat="42.3184" lon="2.64867">
        <ele>1136</ele>
        <time>2022-08-15T21:40:11Z</time>
      </trkpt>
      <trkpt lat="42.31844" lon="2.64886">
        <ele>1136</ele>
        <time>2022-08-15T21:40:30Z</time>
      </trkpt>
      <trkpt lat="42.31852" lon="2.64905">
        <ele>1135</ele>
        <time>2022-08-15T21:40:52Z</time>
      </trkpt>
      <trkpt lat="42.31865" lon="2.64919">
        <ele>1134</ele>
        <time>2022-08-15T21:41:14Z</time>
      </trkpt>
      <trkpt lat="42.31875" lon="2.64935">
        <ele>1134</ele>
        <time>2022-08-15T21:41:35Z</time>
      </trkpt>
      <trkpt lat="42.31883" lon="2.64955">
        <ele>1136</ele>
        <time>2022-08-15T21:41:57Z</time>
      </trkpt>
      <trkpt lat="42.31889" lon="2.64994">
        <ele>1141</ele>
        <time>2022-08-15T21:42:36Z</time>
      </trkpt>
      <trkpt lat="42.31887" lon="2.6501">
        <ele>1143</ele>
        <time>2022-08-15T21:42:52Z</time>
      </trkpt>
      <trkpt lat="42.31896" lon="2.65049">
        <ele>1147</ele>
        <time>2022-08-15T21:43:33Z</time>
      </trkpt>
      <trkpt lat="42.31905" lon="2.65068">
        <ele>1148</ele>
        <time>2022-08-15T21:43:55Z</time>
      </trkpt>
      <trkpt lat="42.31904" lon="2.6508">
        <ele>1150</ele>
        <time>2022-08-15T21:44:07Z</time>
      </trkpt>
      <trkpt lat="42.31908" lon="2.65133">
        <ele>1154</ele>
        <time>2022-08-15T21:44:59Z</time>
      </trkpt>
      <trkpt lat="42.31915" lon="2.65144">
        <ele>1154</ele>
        <time>2022-08-15T21:45:14Z</time>
      </trkpt>
      <trkpt lat="42.3192" lon="2.65158">
        <ele>1153</ele>
        <time>2022-08-15T21:45:29Z</time>
      </trkpt>
      <trkpt lat="42.31926" lon="2.65199">
        <ele>1152</ele>
        <time>2022-08-15T21:46:10Z</time>
      </trkpt>
      <trkpt lat="42.31925" lon="2.65217">
        <ele>1154</ele>
        <time>2022-08-15T21:46:28Z</time>
      </trkpt>
      <trkpt lat="42.31932" lon="2.65236">
        <ele>1151</ele>
        <time>2022-08-15T21:46:49Z</time>
      </trkpt>
      <trkpt lat="42.31937" lon="2.65295">
        <ele>1151</ele>
        <time>2022-08-15T21:47:48Z</time>
      </trkpt>
      <trkpt lat="42.31935" lon="2.6531">
        <ele>1152</ele>
        <time>2022-08-15T21:48:03Z</time>
      </trkpt>
      <trkpt lat="42.31932" lon="2.65326">
        <ele>1154</ele>
        <time>2022-08-15T21:48:19Z</time>
      </trkpt>
      <trkpt lat="42.31929" lon="2.65327">
        <ele>1155</ele>
        <time>2022-08-15T21:48:23Z</time>
      </trkpt>
      <trkpt lat="42.31928" lon="2.65337">
        <ele>1156</ele>
        <time>2022-08-15T21:48:33Z</time>
      </trkpt>
      <trkpt lat="42.31923" lon="2.6534">
        <ele>1159</ele>
        <time>2022-08-15T21:48:40Z</time>
      </trkpt>
      <trkpt lat="42.319" lon="2.65385">
        <ele>1163</ele>
        <time>2022-08-15T21:49:34Z</time>
      </trkpt>
      <trkpt lat="42.31902" lon="2.65403">
        <ele>1164</ele>
        <time>2022-08-15T21:49:52Z</time>
      </trkpt>
      <trkpt lat="42.31896" lon="2.65421">
        <ele>1164</ele>
        <time>2022-08-15T21:50:12Z</time>
      </trkpt>
      <trkpt lat="42.31896" lon="2.6546">
        <ele>1165</ele>
        <time>2022-08-15T21:50:50Z</time>
      </trkpt>
      <trkpt lat="42.31893" lon="2.65482">
        <ele>1165</ele>
        <time>2022-08-15T21:51:12Z</time>
      </trkpt>
      <trkpt lat="42.31894" lon="2.65498">
        <ele>1165</ele>
        <time>2022-08-15T21:51:28Z</time>
      </trkpt>
      <trkpt lat="42.31899" lon="2.65513">
        <ele>1165</ele>
        <time>2022-08-15T21:51:44Z</time>
      </trkpt>
      <trkpt lat="42.31912" lon="2.65536">
        <ele>1165</ele>
        <time>2022-08-15T21:52:13Z</time>
      </trkpt>
      <trkpt lat="42.31917" lon="2.6555">
        <ele>1165</ele>
        <time>2022-08-15T21:52:28Z</time>
      </trkpt>
      <trkpt lat="42.3192" lon="2.6555">
        <ele>1164</ele>
        <time>2022-08-15T21:52:32Z</time>
      </trkpt>
      <trkpt lat="42.31918" lon="2.65567">
        <ele>1164</ele>
        <time>2022-08-15T21:52:49Z</time>
      </trkpt>
      <trkpt lat="42.31926" lon="2.65605">
        <ele>1155</ele>
        <time>2022-08-15T21:53:28Z</time>
      </trkpt>
      <trkpt lat="42.31935" lon="2.65615">
        <ele>1150</ele>
        <time>2022-08-15T21:53:44Z</time>
      </trkpt>
      <trkpt lat="42.31939" lon="2.65633">
        <ele>1146</ele>
        <time>2022-08-15T21:54:02Z</time>
      </trkpt>
      <trkpt lat="42.31944" lon="2.65693">
        <ele>1134</ele>
        <time>2022-08-15T21:55:02Z</time>
      </trkpt>
      <trkpt lat="42.31937" lon="2.65729">
        <ele>1131</ele>
        <time>2022-08-15T21:55:39Z</time>
      </trkpt>
      <trkpt lat="42.31941" lon="2.65751">
        <ele>1126</ele>
        <time>2022-08-15T21:56:01Z</time>
      </trkpt>
      <trkpt lat="42.31951" lon="2.65775">
        <ele>1120</ele>
        <time>2022-08-15T21:56:28Z</time>
      </trkpt>
      <trkpt lat="42.31959" lon="2.65815">
        <ele>1116</ele>
        <time>2022-08-15T21:57:09Z</time>
      </trkpt>
      <trkpt lat="42.31956" lon="2.65823">
        <ele>1116</ele>
        <time>2022-08-15T21:57:18Z</time>
      </trkpt>
      <trkpt lat="42.31952" lon="2.65826">
        <ele>1116</ele>
        <time>2022-08-15T21:57:24Z</time>
      </trkpt>
      <trkpt lat="42.31957" lon="2.65834">
        <ele>1115</ele>
        <time>2022-08-15T21:57:34Z</time>
      </trkpt>
      <trkpt lat="42.31964" lon="2.65859">
        <ele>1114</ele>
        <time>2022-08-15T21:58:01Z</time>
      </trkpt>
      <trkpt lat="42.31984" lon="2.65905">
        <ele>1116</ele>
        <time>2022-08-15T21:58:53Z</time>
      </trkpt>
      <trkpt lat="42.31988" lon="2.6593">
        <ele>1117</ele>
        <time>2022-08-15T21:59:19Z</time>
      </trkpt>
      <trkpt lat="42.31986" lon="2.65954">
        <ele>1116</ele>
        <time>2022-08-15T21:59:43Z</time>
      </trkpt>
      <trkpt lat="42.32002" lon="2.65998">
        <ele>1123</ele>
        <time>2022-08-15T22:00:31Z</time>
      </trkpt>
      <trkpt lat="42.32002" lon="2.66006">
        <ele>1122</ele>
        <time>2022-08-15T22:00:39Z</time>
      </trkpt>
      <trkpt lat="42.31995" lon="2.66016">
        <ele>1117</ele>
        <time>2022-08-15T22:00:52Z</time>
      </trkpt>
      <trkpt lat="42.31995" lon="2.66022">
        <ele>1116</ele>
        <time>2022-08-15T22:00:58Z</time>
      </trkpt>
      <trkpt lat="42.31998" lon="2.66023">
        <ele>1117</ele>
        <time>2022-08-15T22:01:02Z</time>
      </trkpt>
      <trkpt lat="42.32002" lon="2.6603">
        <ele>1116</ele>
        <time>2022-08-15T22:01:11Z</time>
      </trkpt>
      <trkpt lat="42.32002" lon="2.6604">
        <ele>1114</ele>
        <time>2022-08-15T22:01:21Z</time>
      </trkpt>
      <trkpt lat="42.3201" lon="2.66054">
        <ele>1108</ele>
        <time>2022-08-15T22:01:38Z</time>
      </trkpt>
      <trkpt lat="42.32014" lon="2.66085">
        <ele>1101</ele>
        <time>2022-08-15T22:02:10Z</time>
      </trkpt>
      <trkpt lat="42.3201" lon="2.66096">
        <ele>1097</ele>
        <time>2022-08-15T22:02:22Z</time>
      </trkpt>
      <trkpt lat="42.32011" lon="2.66107">
        <ele>1091</ele>
        <time>2022-08-15T22:02:33Z</time>
      </trkpt>
      <trkpt lat="42.32018" lon="2.66104">
        <ele>1091</ele>
        <time>2022-08-15T22:02:42Z</time>
      </trkpt>
      <trkpt lat="42.32023" lon="2.66114">
        <ele>1086</ele>
        <time>2022-08-15T22:02:54Z</time>
      </trkpt>
      <trkpt lat="42.32021" lon="2.66118">
        <ele>1085</ele>
        <time>2022-08-15T22:02:59Z</time>
      </trkpt>
      <trkpt lat="42.32023" lon="2.66118">
        <ele>1084</ele>
        <time>2022-08-15T22:03:02Z</time>
      </trkpt>
      <trkpt lat="42.32034" lon="2.66113">
        <ele>1085</ele>
        <time>2022-08-15T22:03:17Z</time>
      </trkpt>
      <trkpt lat="42.32042" lon="2.66103">
        <ele>1087</ele>
        <time>2022-08-15T22:03:32Z</time>
      </trkpt>
      <trkpt lat="42.32051" lon="2.66112">
        <ele>1082</ele>
        <time>2022-08-15T22:03:47Z</time>
      </trkpt>
      <trkpt lat="42.32053" lon="2.6611">
        <ele>1082</ele>
        <time>2022-08-15T22:03:50Z</time>
      </trkpt>
      <trkpt lat="42.32058" lon="2.66125">
        <ele>1076</ele>
        <time>2022-08-15T22:04:06Z</time>
      </trkpt>
      <trkpt lat="42.32067" lon="2.66122">
        <ele>1076</ele>
        <time>2022-08-15T22:04:19Z</time>
      </trkpt>
      <trkpt lat="42.32071" lon="2.66116">
        <ele>1077</ele>
        <time>2022-08-15T22:04:27Z</time>
      </trkpt>
      <trkpt lat="42.32077" lon="2.66115">
        <ele>1077</ele>
        <time>2022-08-15T22:04:35Z</time>
      </trkpt>
      <trkpt lat="42.32082" lon="2.6611">
        <ele>1077</ele>
        <time>2022-08-15T22:04:43Z</time>
      </trkpt>
      <trkpt lat="42.32088" lon="2.66111">
        <ele>1074</ele>
        <time>2022-08-15T22:04:51Z</time>
      </trkpt>
      <trkpt lat="42.32092" lon="2.66122">
        <ele>1069</ele>
        <time>2022-08-15T22:05:03Z</time>
      </trkpt>
      <trkpt lat="42.32105" lon="2.66128">
        <ele>1060</ele>
        <time>2022-08-15T22:05:21Z</time>
      </trkpt>
      <trkpt lat="42.32107" lon="2.66124">
        <ele>1060</ele>
        <time>2022-08-15T22:05:26Z</time>
      </trkpt>
      <trkpt lat="42.32111" lon="2.66127">
        <ele>1057</ele>
        <time>2022-08-15T22:05:32Z</time>
      </trkpt>
      <trkpt lat="42.32113" lon="2.66124">
        <ele>1056</ele>
        <time>2022-08-15T22:05:36Z</time>
      </trkpt>
      <trkpt lat="42.32123" lon="2.66137">
        <ele>1048</ele>
        <time>2022-08-15T22:05:55Z</time>
      </trkpt>
      <trkpt lat="42.3213" lon="2.66129">
        <ele>1045</ele>
        <time>2022-08-15T22:06:07Z</time>
      </trkpt>
      <trkpt lat="42.32134" lon="2.66133">
        <ele>1043</ele>
        <time>2022-08-15T22:06:14Z</time>
      </trkpt>
      <trkpt lat="42.32135" lon="2.66139">
        <ele>1041</ele>
        <time>2022-08-15T22:06:20Z</time>
      </trkpt>
      <trkpt lat="42.32132" lon="2.66142">
        <ele>1042</ele>
        <time>2022-08-15T22:06:25Z</time>
      </trkpt>
      <trkpt lat="42.32136" lon="2.6616">
        <ele>1038</ele>
        <time>2022-08-15T22:06:43Z</time>
      </trkpt>
      <trkpt lat="42.32135" lon="2.66176">
        <ele>1031</ele>
        <time>2022-08-15T22:06:59Z</time>
      </trkpt>
      <trkpt lat="42.32137" lon="2.66174">
        <ele>1032</ele>
        <time>2022-08-15T22:07:02Z</time>
      </trkpt>
      <trkpt lat="42.32135" lon="2.66173">
        <ele>1033</ele>
        <time>2022-08-15T22:07:05Z</time>
      </trkpt>
      <trkpt lat="42.32136" lon="2.6617">
        <ele>1035</ele>
        <time>2022-08-15T22:07:08Z</time>
      </trkpt>
      <trkpt lat="42.32138" lon="2.66172">
        <ele>1033</ele>
        <time>2022-08-15T22:07:12Z</time>
      </trkpt>
      <trkpt lat="42.32136" lon="2.66175">
        <ele>1032</ele>
        <time>2022-08-15T22:07:16Z</time>
      </trkpt>
      <trkpt lat="42.32134" lon="2.66174">
        <ele>1033</ele>
        <time>2022-08-15T22:07:19Z</time>
      </trkpt>
      <trkpt lat="42.32137" lon="2.66182">
        <ele>1027</ele>
        <time>2022-08-15T22:07:27Z</time>
      </trkpt>
      <trkpt lat="42.32143" lon="2.66173">
        <ele>1030</ele>
        <time>2022-08-15T22:07:39Z</time>
      </trkpt>
      <trkpt lat="42.32141" lon="2.6618">
        <ele>1027</ele>
        <time>2022-08-15T22:07:47Z</time>
      </trkpt>
      <trkpt lat="42.3213" lon="2.66182">
        <ele>1030</ele>
        <time>2022-08-15T22:08:02Z</time>
      </trkpt>
      <trkpt lat="42.32132" lon="2.66192">
        <ele>1023</ele>
        <time>2022-08-15T22:08:12Z</time>
      </trkpt>
      <trkpt lat="42.32131" lon="2.66195">
        <ele>1021</ele>
        <time>2022-08-15T22:08:15Z</time>
      </trkpt>
      <trkpt lat="42.32127" lon="2.6619">
        <ele>1026</ele>
        <time>2022-08-15T22:08:22Z</time>
      </trkpt>
      <trkpt lat="42.32125" lon="2.66198">
        <ele>1021</ele>
        <time>2022-08-15T22:08:31Z</time>
      </trkpt>
      <trkpt lat="42.3212" lon="2.66195">
        <ele>1025</ele>
        <time>2022-08-15T22:08:38Z</time>
      </trkpt>
      <trkpt lat="42.3212" lon="2.66189">
        <ele>1029</ele>
        <time>2022-08-15T22:08:44Z</time>
      </trkpt>
      <trkpt lat="42.32114" lon="2.66179">
        <ele>1039</ele>
        <time>2022-08-15T22:08:57Z</time>
      </trkpt>
      <trkpt lat="42.32105" lon="2.66174">
        <ele>1046</ele>
        <time>2022-08-15T22:09:10Z</time>
      </trkpt>
      <trkpt lat="42.32098" lon="2.66173">
        <ele>1050</ele>
        <time>2022-08-15T22:09:19Z</time>
      </trkpt>
      <trkpt lat="42.3209" lon="2.66166">
        <ele>1059</ele>
        <time>2022-08-15T22:09:32Z</time>
      </trkpt>
      <trkpt lat="42.32085" lon="2.66174">
        <ele>1055</ele>
        <time>2022-08-15T22:09:42Z</time>
      </trkpt>
      <trkpt lat="42.32072" lon="2.66173">
        <ele>1057</ele>
        <time>2022-08-15T22:09:59Z</time>
      </trkpt>
      <trkpt lat="42.32043" lon="2.66187">
        <ele>1045</ele>
        <time>2022-08-15T22:10:41Z</time>
      </trkpt>
      <trkpt lat="42.32029" lon="2.66201">
        <ele>1033</ele>
        <time>2022-08-15T22:11:04Z</time>
      </trkpt>
      <trkpt lat="42.32013" lon="2.66222">
        <ele>1014</ele>
        <time>2022-08-15T22:11:34Z</time>
      </trkpt>
      <trkpt lat="42.32" lon="2.66233">
        <ele>1004</ele>
        <time>2022-08-15T22:11:54Z</time>
      </trkpt>
      <trkpt lat="42.31995" lon="2.66241">
        <ele>997</ele>
        <time>2022-08-15T22:12:04Z</time>
      </trkpt>
      <trkpt lat="42.31994" lon="2.66257">
        <ele>986</ele>
        <time>2022-08-15T22:12:20Z</time>
      </trkpt>
      <trkpt lat="42.3199" lon="2.66272">
        <ele>980</ele>
        <time>2022-08-15T22:12:36Z</time>
      </trkpt>
      <trkpt lat="42.31976" lon="2.66291">
        <ele>973</ele>
        <time>2022-08-15T22:13:02Z</time>
      </trkpt>
      <trkpt lat="42.31969" lon="2.66295">
        <ele>972</ele>
        <time>2022-08-15T22:13:13Z</time>
      </trkpt>
      <trkpt lat="42.31966" lon="2.66303">
        <ele>970</ele>
        <time>2022-08-15T22:13:21Z</time>
      </trkpt>
      <trkpt lat="42.3195" lon="2.66326">
        <ele>965</ele>
        <time>2022-08-15T22:13:53Z</time>
      </trkpt>
      <trkpt lat="42.3194" lon="2.66336">
        <ele>964</ele>
        <time>2022-08-15T22:14:09Z</time>
      </trkpt>
      <trkpt lat="42.31917" lon="2.66345">
        <ele>968</ele>
        <time>2022-08-15T22:14:41Z</time>
      </trkpt>
      <trkpt lat="42.31917" lon="2.66341">
        <ele>969</ele>
        <time>2022-08-15T22:14:45Z</time>
      </trkpt>
      <trkpt lat="42.31918" lon="2.66351">
        <ele>966</ele>
        <time>2022-08-15T22:14:55Z</time>
      </trkpt>
      <trkpt lat="42.31917" lon="2.66343">
        <ele>968</ele>
        <time>2022-08-15T22:15:03Z</time>
      </trkpt>
      <trkpt lat="42.31914" lon="2.66352">
        <ele>965</ele>
        <time>2022-08-15T22:15:13Z</time>
      </trkpt>
      <trkpt lat="42.31911" lon="2.66352">
        <ele>964</ele>
        <time>2022-08-15T22:15:17Z</time>
      </trkpt>
      <trkpt lat="42.3191" lon="2.66356">
        <ele>962</ele>
        <time>2022-08-15T22:15:21Z</time>
      </trkpt>
      <trkpt lat="42.31902" lon="2.66364">
        <ele>957</ele>
        <time>2022-08-15T22:15:34Z</time>
      </trkpt>
      <trkpt lat="42.31903" lon="2.66377">
        <ele>955</ele>
        <time>2022-08-15T22:15:47Z</time>
      </trkpt>
      <trkpt lat="42.319" lon="2.66394">
        <ele>951</ele>
        <time>2022-08-15T22:16:04Z</time>
      </trkpt>
      <trkpt lat="42.31891" lon="2.66429">
        <ele>942</ele>
        <time>2022-08-15T22:16:41Z</time>
      </trkpt>
      <trkpt lat="42.31883" lon="2.66442">
        <ele>937</ele>
        <time>2022-08-15T22:16:58Z</time>
      </trkpt>
      <trkpt lat="42.31882" lon="2.66459">
        <ele>935</ele>
        <time>2022-08-15T22:17:14Z</time>
      </trkpt>
      <trkpt lat="42.31885" lon="2.66491">
        <ele>932</ele>
        <time>2022-08-15T22:17:46Z</time>
      </trkpt>
      <trkpt lat="42.31881" lon="2.66517">
        <ele>928</ele>
        <time>2022-08-15T22:18:12Z</time>
      </trkpt>
      <trkpt lat="42.31884" lon="2.66512">
        <ele>930</ele>
        <time>2022-08-15T22:18:19Z</time>
      </trkpt>
      <trkpt lat="42.31877" lon="2.66527">
        <ele>925</ele>
        <time>2022-08-15T22:18:36Z</time>
      </trkpt>
      <trkpt lat="42.31873" lon="2.66584">
        <ele>919</ele>
        <time>2022-08-15T22:19:33Z</time>
      </trkpt>
      <trkpt lat="42.31878" lon="2.66592">
        <ele>920</ele>
        <time>2022-08-15T22:19:43Z</time>
      </trkpt>
      <trkpt lat="42.31884" lon="2.66636">
        <ele>918</ele>
        <time>2022-08-15T22:20:27Z</time>
      </trkpt>
      <trkpt lat="42.31884" lon="2.66728">
        <ele>915</ele>
        <time>2022-08-15T22:21:58Z</time>
      </trkpt>
      <trkpt lat="42.3188" lon="2.66764">
        <ele>916</ele>
        <time>2022-08-15T22:22:34Z</time>
      </trkpt>
      <trkpt lat="42.31872" lon="2.66806">
        <ele>918</ele>
        <time>2022-08-15T22:23:17Z</time>
      </trkpt>
      <trkpt lat="42.31869" lon="2.66842">
        <ele>922</ele>
        <time>2022-08-15T22:23:53Z</time>
      </trkpt>
      <trkpt lat="42.31871" lon="2.66881">
        <ele>924</ele>
        <time>2022-08-15T22:24:31Z</time>
      </trkpt>
      <trkpt lat="42.31879" lon="2.66905">
        <ele>924</ele>
        <time>2022-08-15T22:24:57Z</time>
      </trkpt>
      <trkpt lat="42.3189" lon="2.66921">
        <ele>923</ele>
        <time>2022-08-15T22:25:19Z</time>
      </trkpt>
      <trkpt lat="42.31895" lon="2.6699">
        <ele>921</ele>
        <time>2022-08-15T22:26:27Z</time>
      </trkpt>
      <trkpt lat="42.31899" lon="2.66998">
        <ele>920</ele>
        <time>2022-08-15T22:26:37Z</time>
      </trkpt>
      <trkpt lat="42.31907" lon="2.67006">
        <ele>918</ele>
        <time>2022-08-15T22:26:50Z</time>
      </trkpt>
      <trkpt lat="42.31914" lon="2.67003">
        <ele>916</ele>
        <time>2022-08-15T22:27:00Z</time>
      </trkpt>
      <trkpt lat="42.31912" lon="2.67">
        <ele>917</ele>
        <time>2022-08-15T22:27:04Z</time>
      </trkpt>
      <trkpt lat="42.31914" lon="2.67001">
        <ele>917</ele>
        <time>2022-08-15T22:27:06Z</time>
      </trkpt>
      <trkpt lat="42.31908" lon="2.67006">
        <ele>918</ele>
        <time>2022-08-15T22:27:16Z</time>
      </trkpt>
      <trkpt lat="42.31897" lon="2.67045">
        <ele>915</ele>
        <time>2022-08-15T22:27:57Z</time>
      </trkpt>
      <trkpt lat="42.31905" lon="2.67109">
        <ele>907</ele>
        <time>2022-08-15T22:29:01Z</time>
      </trkpt>
      <trkpt lat="42.31902" lon="2.67124">
        <ele>906</ele>
        <time>2022-08-15T22:29:16Z</time>
      </trkpt>
      <trkpt lat="42.31903" lon="2.67137">
        <ele>905</ele>
        <time>2022-08-15T22:29:29Z</time>
      </trkpt>
      <trkpt lat="42.31914" lon="2.67169">
        <ele>905</ele>
        <time>2022-08-15T22:30:04Z</time>
      </trkpt>
      <trkpt lat="42.31929" lon="2.67189">
        <ele>899</ele>
        <time>2022-08-15T22:30:32Z</time>
      </trkpt>
      <trkpt lat="42.31938" lon="2.67236">
        <ele>897</ele>
        <time>2022-08-15T22:31:20Z</time>
      </trkpt>
      <trkpt lat="42.31946" lon="2.67261">
        <ele>894</ele>
        <time>2022-08-15T22:31:47Z</time>
      </trkpt>
      <trkpt lat="42.31947" lon="2.67283">
        <ele>892</ele>
        <time>2022-08-15T22:32:09Z</time>
      </trkpt>
      <trkpt lat="42.31955" lon="2.67313">
        <ele>888</ele>
        <time>2022-08-15T22:32:40Z</time>
      </trkpt>
      <trkpt lat="42.31956" lon="2.6734">
        <ele>886</ele>
        <time>2022-08-15T22:33:07Z</time>
      </trkpt>
      <trkpt lat="42.31963" lon="2.67357">
        <ele>882</ele>
        <time>2022-08-15T22:33:26Z</time>
      </trkpt>
      <trkpt lat="42.31976" lon="2.67423">
        <ele>874</ele>
        <time>2022-08-15T22:34:34Z</time>
      </trkpt>
      <trkpt lat="42.31978" lon="2.67469">
        <ele>869</ele>
        <time>2022-08-15T22:35:19Z</time>
      </trkpt>
      <trkpt lat="42.31982" lon="2.67482">
        <ele>868</ele>
        <time>2022-08-15T22:35:33Z</time>
      </trkpt>
      <trkpt lat="42.3198" lon="2.67507">
        <ele>866</ele>
        <time>2022-08-15T22:35:58Z</time>
      </trkpt>
      <trkpt lat="42.31987" lon="2.67557">
        <ele>871</ele>
        <time>2022-08-15T22:36:48Z</time>
      </trkpt>
      <trkpt lat="42.31993" lon="2.67577">
        <ele>874</ele>
        <time>2022-08-15T22:37:09Z</time>
      </trkpt>
      <trkpt lat="42.31994" lon="2.67602">
        <ele>876</ele>
        <time>2022-08-15T22:37:34Z</time>
      </trkpt>
      <trkpt lat="42.31996" lon="2.67613">
        <ele>878</ele>
        <time>2022-08-15T22:37:45Z</time>
      </trkpt>
      <trkpt lat="42.31999" lon="2.67615">
        <ele>879</ele>
        <time>2022-08-15T22:37:50Z</time>
      </trkpt>
      <trkpt lat="42.32002" lon="2.67611">
        <ele>877</ele>
        <time>2022-08-15T22:37:55Z</time>
      </trkpt>
      <trkpt lat="42.32007" lon="2.67621">
        <ele>873</ele>
        <time>2022-08-15T22:38:07Z</time>
      </trkpt>
      <trkpt lat="42.32008" lon="2.67616">
        <ele>872</ele>
        <time>2022-08-15T22:38:12Z</time>
      </trkpt>
      <trkpt lat="42.32009" lon="2.67637">
        <ele>872</ele>
        <time>2022-08-15T22:38:33Z</time>
      </trkpt>
      <trkpt lat="42.32013" lon="2.67637">
        <ele>868</ele>
        <time>2022-08-15T22:38:38Z</time>
      </trkpt>
      <trkpt lat="42.32011" lon="2.67641">
        <ele>871</ele>
        <time>2022-08-15T22:38:43Z</time>
      </trkpt>
      <trkpt lat="42.31998" lon="2.67638">
        <ele>880</ele>
        <time>2022-08-15T22:39:01Z</time>
      </trkpt>
      <trkpt lat="42.31996" lon="2.67642">
        <ele>879</ele>
        <time>2022-08-15T22:39:05Z</time>
      </trkpt>
      <trkpt lat="42.31997" lon="2.67659">
        <ele>880</ele>
        <time>2022-08-15T22:39:22Z</time>
      </trkpt>
      <trkpt lat="42.31992" lon="2.67669">
        <ele>877</ele>
        <time>2022-08-15T22:39:34Z</time>
      </trkpt>
      <trkpt lat="42.3199" lon="2.67681">
        <ele>873</ele>
        <time>2022-08-15T22:39:46Z</time>
      </trkpt>
      <trkpt lat="42.31995" lon="2.67702">
        <ele>871</ele>
        <time>2022-08-15T22:40:08Z</time>
      </trkpt>
      <trkpt lat="42.31984" lon="2.67733">
        <ele>859</ele>
        <time>2022-08-15T22:40:42Z</time>
      </trkpt>
      <trkpt lat="42.31992" lon="2.67755">
        <ele>856</ele>
        <time>2022-08-15T22:41:06Z</time>
      </trkpt>
      <trkpt lat="42.31989" lon="2.67762">
        <ele>853</ele>
        <time>2022-08-15T22:41:14Z</time>
      </trkpt>
      <trkpt lat="42.31983" lon="2.67766">
        <ele>850</ele>
        <time>2022-08-15T22:41:23Z</time>
      </trkpt>
      <trkpt lat="42.3198" lon="2.67773">
        <ele>847</ele>
        <time>2022-08-15T22:41:31Z</time>
      </trkpt>
      <trkpt lat="42.3198" lon="2.67785">
        <ele>844</ele>
        <time>2022-08-15T22:41:43Z</time>
      </trkpt>
      <trkpt lat="42.31975" lon="2.67797">
        <ele>839</ele>
        <time>2022-08-15T22:41:57Z</time>
      </trkpt>
      <trkpt lat="42.3197" lon="2.67802">
        <ele>836</ele>
        <time>2022-08-15T22:42:05Z</time>
      </trkpt>
      <trkpt lat="42.31974" lon="2.67814">
        <ele>834</ele>
        <time>2022-08-15T22:42:18Z</time>
      </trkpt>
      <trkpt lat="42.31972" lon="2.67824">
        <ele>831</ele>
        <time>2022-08-15T22:42:28Z</time>
      </trkpt>
      <trkpt lat="42.31973" lon="2.67841">
        <ele>825</ele>
        <time>2022-08-15T22:42:45Z</time>
      </trkpt>
      <trkpt lat="42.3197" lon="2.6785">
        <ele>822</ele>
        <time>2022-08-15T22:42:55Z</time>
      </trkpt>
      <trkpt lat="42.31972" lon="2.67856">
        <ele>820</ele>
        <time>2022-08-15T22:43:01Z</time>
      </trkpt>
      <trkpt lat="42.31967" lon="2.67858">
        <ele>819</ele>
        <time>2022-08-15T22:43:08Z</time>
      </trkpt>
      <trkpt lat="42.3198" lon="2.67885">
        <ele>811</ele>
        <time>2022-08-15T22:43:40Z</time>
      </trkpt>
      <trkpt lat="42.31987" lon="2.67888">
        <ele>811</ele>
        <time>2022-08-15T22:43:50Z</time>
      </trkpt>
      <trkpt lat="42.31991" lon="2.67908">
        <ele>805</ele>
        <time>2022-08-15T22:44:10Z</time>
      </trkpt>
      <trkpt lat="42.32005" lon="2.67914">
        <ele>803</ele>
        <time>2022-08-15T22:44:30Z</time>
      </trkpt>
      <trkpt lat="42.32013" lon="2.67915">
        <ele>801</ele>
        <time>2022-08-15T22:44:40Z</time>
      </trkpt>
      <trkpt lat="42.32024" lon="2.67912">
        <ele>799</ele>
        <time>2022-08-15T22:44:55Z</time>
      </trkpt>
      <trkpt lat="42.3204" lon="2.67915">
        <ele>794</ele>
        <time>2022-08-15T22:45:17Z</time>
      </trkpt>
      <trkpt lat="42.32041" lon="2.67924">
        <ele>791</ele>
        <time>2022-08-15T22:45:26Z</time>
      </trkpt>
      <trkpt lat="42.32041" lon="2.67944">
        <ele>784</ele>
        <time>2022-08-15T22:45:46Z</time>
      </trkpt>
      <trkpt lat="42.32037" lon="2.67963">
        <ele>778</ele>
        <time>2022-08-15T22:46:05Z</time>
      </trkpt>
      <trkpt lat="42.32039" lon="2.6798">
        <ele>772</ele>
        <time>2022-08-15T22:46:22Z</time>
      </trkpt>
      <trkpt lat="42.32035" lon="2.67991">
        <ele>769</ele>
        <time>2022-08-15T22:46:34Z</time>
      </trkpt>
      <trkpt lat="42.32012" lon="2.68025">
        <ele>763</ele>
        <time>2022-08-15T22:47:20Z</time>
      </trkpt>
      <trkpt lat="42.31994" lon="2.68036">
        <ele>760</ele>
        <time>2022-08-15T22:47:46Z</time>
      </trkpt>
      <trkpt lat="42.31983" lon="2.68047">
        <ele>754</ele>
        <time>2022-08-15T22:48:04Z</time>
      </trkpt>
      <trkpt lat="42.31976" lon="2.6807">
        <ele>744</ele>
        <time>2022-08-15T22:48:29Z</time>
      </trkpt>
      <trkpt lat="42.31977" lon="2.6808">
        <ele>741</ele>
        <time>2022-08-15T22:48:39Z</time>
      </trkpt>
      <trkpt lat="42.31981" lon="2.68082">
        <ele>741</ele>
        <time>2022-08-15T22:48:44Z</time>
      </trkpt>
      <trkpt lat="42.32002" lon="2.6808">
        <ele>747</ele>
        <time>2022-08-15T22:49:13Z</time>
      </trkpt>
      <trkpt lat="42.32009" lon="2.6809">
        <ele>742</ele>
        <time>2022-08-15T22:49:26Z</time>
      </trkpt>
      <trkpt lat="42.32008" lon="2.68138">
        <ele>727</ele>
        <time>2022-08-15T22:50:14Z</time>
      </trkpt>
      <trkpt lat="42.32011" lon="2.68155">
        <ele>721</ele>
        <time>2022-08-15T22:50:31Z</time>
      </trkpt>
      <trkpt lat="42.32007" lon="2.68162">
        <ele>719</ele>
        <time>2022-08-15T22:50:40Z</time>
      </trkpt>
      <trkpt lat="42.31998" lon="2.68196">
        <ele>708</ele>
        <time>2022-08-15T22:51:15Z</time>
      </trkpt>
      <trkpt lat="42.31991" lon="2.68208">
        <ele>702</ele>
        <time>2022-08-15T22:51:30Z</time>
      </trkpt>
      <trkpt lat="42.31983" lon="2.68211">
        <ele>699</ele>
        <time>2022-08-15T22:51:41Z</time>
      </trkpt>
      <trkpt lat="42.3198" lon="2.68209">
        <ele>699</ele>
        <time>2022-08-15T22:51:46Z</time>
      </trkpt>
      <trkpt lat="42.31975" lon="2.68235">
        <ele>689</ele>
        <time>2022-08-15T22:52:12Z</time>
      </trkpt>
      <trkpt lat="42.31977" lon="2.68247">
        <ele>686</ele>
        <time>2022-08-15T22:52:24Z</time>
      </trkpt>
      <trkpt lat="42.31974" lon="2.68257">
        <ele>682</ele>
        <time>2022-08-15T22:52:35Z</time>
      </trkpt>
      <trkpt lat="42.31967" lon="2.68267">
        <ele>678</ele>
        <time>2022-08-15T22:52:49Z</time>
      </trkpt>
      <trkpt lat="42.31964" lon="2.68281">
        <ele>674</ele>
        <time>2022-08-15T22:53:03Z</time>
      </trkpt>
      <trkpt lat="42.31964" lon="2.68291">
        <ele>671</ele>
        <time>2022-08-15T22:53:13Z</time>
      </trkpt>
      <trkpt lat="42.31976" lon="2.68316">
        <ele>668</ele>
        <time>2022-08-15T22:53:42Z</time>
      </trkpt>
      <trkpt lat="42.31977" lon="2.6834">
        <ele>662</ele>
        <time>2022-08-15T22:54:06Z</time>
      </trkpt>
      <trkpt lat="42.31969" lon="2.68346">
        <ele>660</ele>
        <time>2022-08-15T22:54:18Z</time>
      </trkpt>
      <trkpt lat="42.3196" lon="2.68331">
        <ele>660</ele>
        <time>2022-08-15T22:54:37Z</time>
      </trkpt>
      <trkpt lat="42.31933" lon="2.68303">
        <ele>661</ele>
        <time>2022-08-15T22:55:23Z</time>
      </trkpt>
      <trkpt lat="42.31924" lon="2.68285">
        <ele>663</ele>
        <time>2022-08-15T22:55:44Z</time>
      </trkpt>
      <trkpt lat="42.31919" lon="2.68267">
        <ele>666</ele>
        <time>2022-08-15T22:56:03Z</time>
      </trkpt>
      <trkpt lat="42.31918" lon="2.68249">
        <ele>670</ele>
        <time>2022-08-15T22:56:21Z</time>
      </trkpt>
      <trkpt lat="42.31908" lon="2.68231">
        <ele>670</ele>
        <time>2022-08-15T22:56:43Z</time>
      </trkpt>
      <trkpt lat="42.31895" lon="2.68222">
        <ele>667</ele>
        <time>2022-08-15T22:57:03Z</time>
      </trkpt>
      <trkpt lat="42.31883" lon="2.68188">
        <ele>672</ele>
        <time>2022-08-15T22:57:40Z</time>
      </trkpt>
      <trkpt lat="42.31869" lon="2.68162">
        <ele>675</ele>
        <time>2022-08-15T22:58:12Z</time>
      </trkpt>
      <trkpt lat="42.31858" lon="2.68159">
        <ele>672</ele>
        <time>2022-08-15T22:58:27Z</time>
      </trkpt>
      <trkpt lat="42.31838" lon="2.68167">
        <ele>660</ele>
        <time>2022-08-15T22:58:54Z</time>
      </trkpt>
      <trkpt lat="42.31789" lon="2.68103">
        <ele>667</ele>
        <time>2022-08-15T23:00:25Z</time>
      </trkpt>
      <trkpt lat="42.31774" lon="2.6809">
        <ele>667</ele>
        <time>2022-08-15T23:00:49Z</time>
      </trkpt>
      <trkpt lat="42.31743" lon="2.68082">
        <ele>660</ele>
        <time>2022-08-15T23:01:31Z</time>
      </trkpt>
      <trkpt lat="42.31728" lon="2.6807">
        <ele>660</ele>
        <time>2022-08-15T23:01:54Z</time>
      </trkpt>
      <trkpt lat="42.3172" lon="2.68059">
        <ele>661</ele>
        <time>2022-08-15T23:02:10Z</time>
      </trkpt>
      <trkpt lat="42.31706" lon="2.68057">
        <ele>657</ele>
        <time>2022-08-15T23:02:28Z</time>
      </trkpt>
      <trkpt lat="42.31661" lon="2.68026">
        <ele>648</ele>
        <time>2022-08-15T23:03:36Z</time>
      </trkpt>
      <trkpt lat="42.31655" lon="2.68024">
        <ele>645</ele>
        <time>2022-08-15T23:03:44Z</time>
      </trkpt>
      <trkpt lat="42.31654" lon="2.68026">
        <ele>645</ele>
        <time>2022-08-15T23:03:46Z</time>
      </trkpt>
      <trkpt lat="42.31654" lon="2.68023">
        <ele>645</ele>
        <time>2022-08-15T23:03:49Z</time>
      </trkpt>
    </trkseg>
  </trk>
</gpx>